Observation data for Palo Duro Canyon State Park Rim on 01/17/2021      Previous  Date  Next       Current Mesonet Observations  Soil Data  Daily Summary Page  Observations in Plain Language
KPD1 170600Z 29008KT 01/M05 A3012 RMK A01 T00101048  RH  066%=      5-min Rain = 0
KPD1 170601Z 29008KT 01/M05 A3012 RMK A01 T00101047  RH  066%=      5-min Rain = 0
KPD1 170602Z 29008KT 01/M05 A3012 RMK A01 T00091048  RH  066%=      5-min Rain = 0
KPD1 170603Z 30008KT 01/M05 A3012 RMK A01 T00081048  RH  066%=      5-min Rain = 0
KPD1 170604Z 30009KT 01/M05 A3012 RMK A01 T00081048  RH  066%=      5-min Rain = 0
KPD1 170605Z 29008KT 01/M05 A3012 RMK A01 T00081048  RH  066%=      5-min Rain = 0
KPD1 170606Z 30008KT 01/M05 A3012 RMK A01 T00081048  RH  066%=      5-min Rain = 0
KPD1 170607Z 30008KT 01/M05 A3012 RMK A01 T00081048  RH  066%=      5-min Rain = 0
KPD1 170608Z 30008KT 01/M05 A3012 RMK A01 T00071049  RH  066%=      5-min Rain = 0
KPD1 170609Z 30008KT 01/M05 A3012 RMK A01 T00061049  RH  066%=      5-min Rain = 0
KPD1 170610Z 29008KT 01/M05 A3012 RMK A01 T00061049  RH  067%=      5-min Rain = 0
KPD1 170611Z 29009KT 01/M05 A3012 RMK A01 T00061049  RH  067%=      5-min Rain = 0
KPD1 170612Z 29009KT 01/M05 A3012 RMK A01 T00061049  RH  067%=      5-min Rain = 0
KPD1 170613Z 30008KT 01/M05 A3012 RMK A01 T00051049  RH  067%=      5-min Rain = 0
KPD1 170614Z 30009KT 01/M05 A3012 RMK A01 T00051050  RH  067%=      5-min Rain = 0
KPD1 170615Z 30007KT 00/M05 A3012 RMK A01 T00041050  RH  067%=      5-min Rain = 0
KPD1 170616Z 30008KT 00/M05 A3012 RMK A01 T00041050  RH  067%=      5-min Rain = 0
KPD1 170617Z 30009KT 00/M05 A3012 RMK A01 T00041049  RH  067%=      5-min Rain = 0
KPD1 170618Z 30007KT 00/M05 A3012 RMK A01 T00041049  RH  067%=      5-min Rain = 0
KPD1 170619Z 30008KT 00/M05 A3012 RMK A01 T00041049  RH  067%=      5-min Rain = 0
KPD1 170620Z 30008KT 00/M05 A3012 RMK A01 T00041050  RH  067%=      5-min Rain = 0
KPD1 170621Z 31007KT 00/M05 A3012 RMK A01 T00041050  RH  067%=      5-min Rain = 0
KPD1 170622Z 31008KT 00/M05 A3012 RMK A01 T00031051  RH  067%=      5-min Rain = 0
KPD1 170623Z 30008KT 00/M05 A3012 RMK A01 T00021052  RH  067%=      5-min Rain = 0
KPD1 170624Z 30008KT 00/M05 A3012 RMK A01 T00011052  RH  068%=      5-min Rain = 0
KPD1 170625Z 31007KT 00/05 A3012 RMK A01 T00-00-52  RH  068%=      5-min Rain = 0
KPD1 170626Z 30008KT M00/M05 A3012 RMK A01 T10011053  RH  068%=      5-min Rain = 0
KPD1 170627Z 30009KT M00/M05 A3012 RMK A01 T10011052  RH  069%=      5-min Rain = 0
KPD1 170628Z 30009KT M00/M05 A3012 RMK A01 T10011052  RH  069%=      5-min Rain = 0
KPD1 170629Z 30009KT M00/M05 A3012 RMK A01 T10011052  RH  069%=      5-min Rain = 0
KPD1 170630Z 30009KT M00/M05 A3012 RMK A01 T10011052  RH  069%=      5-min Rain = 0
KPD1 170631Z 31009KT M00/M05 A3012 RMK A01 T10021052  RH  069%=      5-min Rain = 0
KPD1 170632Z 30008KT M00/M05 A3012 RMK A01 T10021052  RH  069%=      5-min Rain = 0
KPD1 170633Z 30008KT M00/M05 A3012 RMK A01 T10021052  RH  069%=      5-min Rain = 0
KPD1 170634Z 31008KT M00/M05 A3012 RMK A01 T10021052  RH  069%=      5-min Rain = 0
KPD1 170635Z 30009KT M00/M05 A3012 RMK A01 T10021052  RH  069%=      5-min Rain = 0
KPD1 170636Z 31008KT M00/M05 A3012 RMK A01 T10031054  RH  069%=      5-min Rain = 0
KPD1 170637Z 31008KT M00/M05 A3012 RMK A01 T10041054  RH  069%=      5-min Rain = 0
KPD1 170638Z 31009KT M01/M06 A3012 RMK A01 T10051055  RH  069%=      5-min Rain = 0
KPD1 170639Z 31008KT M01/M05 A3012 RMK A01 T10051054  RH  069%=      5-min Rain = 0
KPD1 170640Z 31008KT M00/M05 A3012 RMK A01 T10041053  RH  070%=      5-min Rain = 0
KPD1 170641Z 31008KT M00/M05 A3012 RMK A01 T10041052  RH  070%=      5-min Rain = 0
KPD1 170642Z 31008KT M00/M05 A3012 RMK A01 T10031052  RH  070%=      5-min Rain = 0
KPD1 170643Z 31009KT M00/M05 A3012 RMK A01 T10041052  RH  070%=      5-min Rain = 0
KPD1 170644Z 31009KT M00/M05 A3012 RMK A01 T10041053  RH  069%=      5-min Rain = 0
KPD1 170645Z 31009KT M00/M05 A3012 RMK A01 T10041053  RH  069%=      5-min Rain = 0
KPD1 170646Z 31008KT M00/M05 A3012 RMK A01 T10041053  RH  069%=      5-min Rain = 0
KPD1 170647Z 32009KT M00/M05 A3012 RMK A01 T10041053  RH  070%=      5-min Rain = 0
KPD1 170648Z 32009KT M00/M05 A3012 RMK A01 T10041052  RH  070%=      5-min Rain = 0
KPD1 170649Z 32009KT M00/M05 A3012 RMK A01 T10031050  RH  070%=      5-min Rain = 0
KPD1 170650Z 32009KT M00/M05 A3013 RMK A01 T10011049  RH  070%=      5-min Rain = 0
KPD1 170651Z 32009KT 00/05 A3013 RMK A01 T00-00-49  RH  070%=      5-min Rain = 0
KPD1 170652Z 32008KT 00/M05 A3012 RMK A01 T00011049  RH  069%=      5-min Rain = 0
KPD1 170653Z 32007KT 00/M05 A3013 RMK A01 T00021049  RH  069%=      5-min Rain = 0
KPD1 170654Z 32007KT 00/M05 A3012 RMK A01 T00021049  RH  069%=      5-min Rain = 0
KPD1 170655Z 32008KT 00/M05 A3013 RMK A01 T00011050  RH  068%=      5-min Rain = 0
KPD1 170656Z 32009KT 00/M05 A3013 RMK A01 T00011051  RH  068%=      5-min Rain = 0
KPD1 170657Z 32009KT 00/05 A3013 RMK A01 T00000-51  RH  069%=      5-min Rain = 0
KPD1 170658Z 32008KT 00/05 A3013 RMK A01 T00000-51  RH  069%=      5-min Rain = 0
KPD1 170659Z 32007KT 00/05 A3013 RMK A01 T00-00-51  RH  068%=      5-min Rain = 0
KPD1 170700Z 32007KT 00/05 A3013 RMK A01 T00-00-51  RH  069%=      5-min Rain = 0
KPD1 170701Z 32008KT M00/M05 A3013 RMK A01 T10011052  RH  069%=      5-min Rain = 0
KPD1 170702Z 32007KT M00/M05 A3013 RMK A01 T10011052  RH  069%=      5-min Rain = 0
KPD1 170703Z 32008KT M00/M05 A3013 RMK A01 T10021052  RH  069%=      5-min Rain = 0
KPD1 170704Z 32007KT M00/M05 A3013 RMK A01 T10021052  RH  069%=      5-min Rain = 0
KPD1 170705Z 32008KT M00/M05 A3013 RMK A01 T10021051  RH  069%=      5-min Rain = 0
KPD1 170706Z 32008KT M00/M05 A3013 RMK A01 T10031052  RH  069%=      5-min Rain = 0
KPD1 170707Z 32008KT M00/M05 A3012 RMK A01 T10031053  RH  069%=      5-min Rain = 0
KPD1 170708Z 32008KT M00/M05 A3012 RMK A01 T10031052  RH  070%=      5-min Rain = 0
KPD1 170709Z 32008KT M00/M05 A3012 RMK A01 T10041052  RH  070%=      5-min Rain = 0
KPD1 170710Z 32008KT M00/M05 A3012 RMK A01 T10041052  RH  070%=      5-min Rain = 0
KPD1 170711Z 32008KT M00/M05 A3012 RMK A01 T10031052  RH  070%=      5-min Rain = 0
KPD1 170712Z 32007KT M00/M05 A3012 RMK A01 T10021051  RH  069%=      5-min Rain = 0
KPD1 170713Z 32007KT M00/M05 A3012 RMK A01 T10021052  RH  069%=      5-min Rain = 0
KPD1 170714Z 32007KT M00/M05 A3012 RMK A01 T10021052  RH  069%=      5-min Rain = 0
KPD1 170715Z 32007KT M00/M05 A3012 RMK A01 T10021052  RH  069%=      5-min Rain = 0
KPD1 170716Z 32007KT M00/M05 A3013 RMK A01 T10021052  RH  069%=      5-min Rain = 0
KPD1 170717Z 32007KT M00/M05 A3013 RMK A01 T10021051  RH  069%=      5-min Rain = 0
KPD1 170718Z 32007KT M00/M05 A3013 RMK A01 T10011051  RH  069%=      5-min Rain = 0
KPD1 170719Z 32007KT M00/M05 A3012 RMK A01 T10011050  RH  070%=      5-min Rain = 0
KPD1 170720Z 32007KT M00/M05 A3012 RMK A01 T10011050  RH  070%=      5-min Rain = 0
KPD1 170721Z 32007KT M00/M05 A3012 RMK A01 T10011049  RH  070%=      5-min Rain = 0
KPD1 170722Z 32007KT 00/05 A3012 RMK A01 T00-00-49  RH  070%=      5-min Rain = 0
KPD1 170723Z 32007KT 00/05 A3012 RMK A01 T00000-49  RH  070%=      5-min Rain = 0
KPD1 170724Z 32006KT 00/05 A3012 RMK A01 T00000-48  RH  070%=      5-min Rain = 0
KPD1 170725Z 32006KT 00/M05 A3012 RMK A01 T00011048  RH  070%=      5-min Rain = 0
KPD1 170726Z 32006KT 00/M05 A3012 RMK A01 T00011048  RH  069%=      5-min Rain = 0
KPD1 170727Z 31006KT 00/M05 A3012 RMK A01 T00021048  RH  069%=      5-min Rain = 0
KPD1 170728Z 32007KT 00/M05 A3012 RMK A01 T00021048  RH  069%=      5-min Rain = 0
KPD1 170729Z 32007KT 00/M05 A3012 RMK A01 T00021049  RH  069%=      5-min Rain = 0
KPD1 170730Z 32008KT 00/M05 A3012 RMK A01 T00011049  RH  069%=      5-min Rain = 0
KPD1 170731Z 32007KT 00/M05 A3012 RMK A01 T00021049  RH  069%=      5-min Rain = 0
KPD1 170732Z 32007KT 00/M05 A3013 RMK A01 T00021048  RH  069%=      5-min Rain = 0
KPD1 170733Z 32007KT 00/M05 A3013 RMK A01 T00041047  RH  069%=      5-min Rain = 0
KPD1 170734Z 32008KT 00/M05 A3013 RMK A01 T00041048  RH  068%=      5-min Rain = 0
KPD1 170735Z 32007KT 01/M05 A3013 RMK A01 T00061047  RH  068%=      5-min Rain = 0
KPD1 170736Z 32008KT 01/M05 A3013 RMK A01 T00061048  RH  067%=      5-min Rain = 0
KPD1 170737Z 32007KT 01/M05 A3013 RMK A01 T00061048  RH  067%=      5-min Rain = 0
KPD1 170738Z 32007KT 01/M05 A3013 RMK A01 T00071048  RH  067%=      5-min Rain = 0
KPD1 170739Z 33007KT 01/M05 A3013 RMK A01 T00061048  RH  067%=      5-min Rain = 0
KPD1 170740Z 33007KT 01/M05 A3013 RMK A01 T00061048  RH  067%=      5-min Rain = 0
KPD1 170741Z 33008KT 01/M05 A3013 RMK A01 T00061049  RH  067%=      5-min Rain = 0
KPD1 170742Z 33008KT 01/M05 A3013 RMK A01 T00051050  RH  067%=      5-min Rain = 0
KPD1 170743Z 32008KT 00/M05 A3013 RMK A01 T00041050  RH  067%=      5-min Rain = 0
KPD1 170744Z 33008KT 00/M05 A3013 RMK A01 T00041050  RH  067%=      5-min Rain = 0
KPD1 170745Z 33009KT 00/M05 A3013 RMK A01 T00031050  RH  068%=      5-min Rain = 0
KPD1 170746Z 33008KT 00/M05 A3013 RMK A01 T00031049  RH  068%=      5-min Rain = 0
KPD1 170747Z 33007KT 01/M05 A3013 RMK A01 T00051048  RH  068%=      5-min Rain = 0
KPD1 170748Z 33008KT 01/M05 A3013 RMK A01 T00061046  RH  068%=      5-min Rain = 0
KPD1 170749Z 33007KT 01/M05 A3013 RMK A01 T00071046  RH  068%=      5-min Rain = 0
KPD1 170750Z 33007KT 01/M05 A3013 RMK A01 T00071046  RH  067%=      5-min Rain = 0
KPD1 170751Z 33007KT 01/M05 A3013 RMK A01 T00081046  RH  067%=      5-min Rain = 0
KPD1 170752Z 33008KT 01/M05 A3013 RMK A01 T00081047  RH  067%=      5-min Rain = 0
KPD1 170753Z 34008KT 01/M05 A3013 RMK A01 T00091046  RH  067%=      5-min Rain = 0
KPD1 170754Z 33008KT 01/M05 A3013 RMK A01 T00111045  RH  066%=      5-min Rain = 0
KPD1 170755Z 34009KT 01/M05 A3013 RMK A01 T00141045  RH  065%=      5-min Rain = 0
KPD1 170756Z 34008KT 02/M05 A3013 RMK A01 T00161046  RH  064%=      5-min Rain = 0
KPD1 170757Z 34008KT 02/M05 A3014 RMK A01 T00171047  RH  062%=      5-min Rain = 0
KPD1 170758Z 34008KT 02/M05 A3014 RMK A01 T00181049  RH  061%=      5-min Rain = 0
KPD1 170759Z 34008KT 02/M05 A3014 RMK A01 T00181051  RH  060%=      5-min Rain = 0
KPD1 170800Z 34008KT 02/M05 A3014 RMK A01 T00181051  RH  060%=      5-min Rain = 0
KPD1 170801Z 34008KT 02/M05 A3014 RMK A01 T00181052  RH  060%=      5-min Rain = 0
KPD1 170802Z 34008KT 02/M05 A3014 RMK A01 T00201052  RH  059%=      5-min Rain = 0
KPD1 170803Z 34008KT 02/M05 A3014 RMK A01 T00201054  RH  058%=      5-min Rain = 0
KPD1 170804Z 34009KT 02/M05 A3014 RMK A01 T00211054  RH  058%=      5-min Rain = 0
KPD1 170805Z 34008KT 02/M06 A3014 RMK A01 T00221055  RH  057%=      5-min Rain = 0
KPD1 170806Z 35009KT 02/M06 A3014 RMK A01 T00231055  RH  056%=      5-min Rain = 0
KPD1 170807Z 35009KT 03/M06 A3014 RMK A01 T00251056  RH  055%=      5-min Rain = 0
KPD1 170808Z 34008KT 03/M06 A3014 RMK A01 T00271056  RH  054%=      5-min Rain = 0
KPD1 170809Z 33008KT 03/M06 A3014 RMK A01 T00271056  RH  054%=      5-min Rain = 0
KPD1 170810Z 33008KT 03/M06 A3014 RMK A01 T00271055  RH  055%=      5-min Rain = 0
KPD1 170811Z 33008KT 03/M05 A3014 RMK A01 T00261052  RH  056%=      5-min Rain = 0
KPD1 170812Z 33008KT 03/M05 A3014 RMK A01 T00261049  RH  058%=      5-min Rain = 0
KPD1 170813Z 33008KT 03/M05 A3014 RMK A01 T00251048  RH  058%=      5-min Rain = 0
KPD1 170814Z 33008KT 03/M05 A3014 RMK A01 T00251047  RH  059%=      5-min Rain = 0
KPD1 170815Z 33007KT 02/M05 A3014 RMK A01 T00241048  RH  059%=      5-min Rain = 0
KPD1 170816Z 33008KT 02/M05 A3014 RMK A01 T00241048  RH  059%=      5-min Rain = 0
KPD1 170817Z 33008KT 02/M05 A3014 RMK A01 T00231048  RH  059%=      5-min Rain = 0
KPD1 170818Z 33008KT 02/M05 A3014 RMK A01 T00221048  RH  059%=      5-min Rain = 0
KPD1 170819Z 34008KT 02/M05 A3014 RMK A01 T00221049  RH  059%=      5-min Rain = 0
KPD1 170820Z 34008KT 02/M05 A3014 RMK A01 T00211049  RH  059%=      5-min Rain = 0
KPD1 170821Z 34008KT 02/M05 A3014 RMK A01 T00201050  RH  060%=      5-min Rain = 0
KPD1 170822Z 34007KT 02/M05 A3014 RMK A01 T00201051  RH  059%=      5-min Rain = 0
KPD1 170823Z 34007KT 02/M05 A3014 RMK A01 T00201051  RH  059%=      5-min Rain = 0
KPD1 170824Z 33007KT 02/M05 A3014 RMK A01 T00201052  RH  059%=      5-min Rain = 0
KPD1 170825Z 34006KT 02/M05 A3014 RMK A01 T00191053  RH  059%=      5-min Rain = 0
KPD1 170826Z 34006KT 02/M05 A3014 RMK A01 T00191053  RH  059%=      5-min Rain = 0
KPD1 170827Z 33007KT 02/M05 A3014 RMK A01 T00191054  RH  058%=      5-min Rain = 0
KPD1 170828Z 33007KT 02/M05 A3014 RMK A01 T00191054  RH  058%=      5-min Rain = 0
KPD1 170829Z 33007KT 02/M05 A3014 RMK A01 T00191054  RH  059%=      5-min Rain = 0
KPD1 170830Z 33006KT 02/M05 A3014 RMK A01 T00191054  RH  059%=      5-min Rain = 0
KPD1 170831Z 33007KT 02/M05 A3014 RMK A01 T00181054  RH  059%=      5-min Rain = 0
KPD1 170832Z 33007KT 02/M05 A3013 RMK A01 T00181054  RH  059%=      5-min Rain = 0
KPD1 170833Z 34006KT 02/M05 A3013 RMK A01 T00171054  RH  059%=      5-min Rain = 0
KPD1 170834Z 34006KT 02/M06 A3013 RMK A01 T00171055  RH  059%=      5-min Rain = 0
KPD1 170835Z 34006KT 02/M06 A3013 RMK A01 T00171056  RH  058%=      5-min Rain = 0
KPD1 170836Z 35007KT 02/M06 A3013 RMK A01 T00171058  RH  058%=      5-min Rain = 0
KPD1 170837Z 34007KT 02/M06 A3013 RMK A01 T00181059  RH  057%=      5-min Rain = 0
KPD1 170838Z 34007KT 02/M06 A3013 RMK A01 T00201060  RH  055%=      5-min Rain = 0
KPD1 170839Z 35007KT 02/M06 A3013 RMK A01 T00211061  RH  054%=      5-min Rain = 0
KPD1 170840Z 35007KT 02/M06 A3013 RMK A01 T00221063  RH  053%=      5-min Rain = 0
KPD1 170841Z 36007KT 02/M06 A3013 RMK A01 T00231064  RH  053%=      5-min Rain = 0
KPD1 170842Z 35009KT 02/M07 A3013 RMK A01 T00231066  RH  052%=      5-min Rain = 0
KPD1 170843Z 35008KT 02/M07 A3013 RMK A01 T00241068  RH  051%=      5-min Rain = 0
KPD1 170844Z 35007KT 03/M07 A3013 RMK A01 T00271068  RH  050%=      5-min Rain = 0
KPD1 170845Z 35009KT 03/M07 A3013 RMK A01 T00281069  RH  049%=      5-min Rain = 0
KPD1 170846Z 35007KT 03/M07 A3013 RMK A01 T00271071  RH  048%=      5-min Rain = 0
KPD1 170847Z 35008KT 03/M07 A3013 RMK A01 T00281072  RH  048%=      5-min Rain = 0
KPD1 170848Z 35009KT 03/M07 A3013 RMK A01 T00281073  RH  047%=      5-min Rain = 0
KPD1 170849Z 36007KT 03/M07 A3013 RMK A01 T00291073  RH  047%=      5-min Rain = 0
KPD1 170850Z 36008KT 03/M07 A3013 RMK A01 T00291074  RH  047%=      5-min Rain = 0
KPD1 170851Z 35008KT 03/M08 A3013 RMK A01 T00291075  RH  046%=      5-min Rain = 0
KPD1 170852Z 36008KT 03/M08 A3013 RMK A01 T00301075  RH  046%=      5-min Rain = 0
KPD1 170853Z 00007KT 03/M08 A3013 RMK A01 T00301075  RH  046%=      5-min Rain = 0
KPD1 170854Z 35008KT 03/M08 A3013 RMK A01 T00301075  RH  046%=      5-min Rain = 0
KPD1 170855Z 35008KT 03/M08 A3013 RMK A01 T00301075  RH  046%=      5-min Rain = 0
KPD1 170856Z 35008KT 03/M08 A3013 RMK A01 T00301075  RH  046%=      5-min Rain = 0
KPD1 170857Z 35008KT 03/M08 A3013 RMK A01 T00301075  RH  046%=      5-min Rain = 0
KPD1 170858Z 35007KT 03/M08 A3013 RMK A01 T00301075  RH  046%=      5-min Rain = 0
KPD1 170859Z 35007KT 03/M07 A3013 RMK A01 T00301074  RH  046%=      5-min Rain = 0
KPD1 170900Z 35006KT 03/M07 A3013 RMK A01 T00301074  RH  047%=      5-min Rain = 0
KPD1 170901Z 35007KT 03/M07 A3013 RMK A01 T00291074  RH  047%=      5-min Rain = 0
KPD1 170902Z 35007KT 03/M07 A3013 RMK A01 T00291074  RH  047%=      5-min Rain = 0
KPD1 170903Z 35007KT 03/M07 A3013 RMK A01 T00281074  RH  047%=      5-min Rain = 0
KPD1 170904Z 34007KT 03/M07 A3013 RMK A01 T00281074  RH  047%=      5-min Rain = 0
KPD1 170905Z 34006KT 03/M07 A3013 RMK A01 T00271074  RH  047%=      5-min Rain = 0
KPD1 170906Z 34007KT 03/M07 A3013 RMK A01 T00261074  RH  048%=      5-min Rain = 0
KPD1 170907Z 34006KT 03/M07 A3013 RMK A01 T00261073  RH  048%=      5-min Rain = 0
KPD1 170908Z 34006KT 03/M07 A3013 RMK A01 T00251073  RH  048%=      5-min Rain = 0
KPD1 170909Z 34007KT 02/M07 A3013 RMK A01 T00241073  RH  049%=      5-min Rain = 0
KPD1 170910Z 34007KT 02/M07 A3013 RMK A01 T00241072  RH  049%=      5-min Rain = 0
KPD1 170911Z 34007KT 02/M07 A3013 RMK A01 T00241071  RH  050%=      5-min Rain = 0
KPD1 170912Z 35007KT 02/M07 A3013 RMK A01 T00231071  RH  050%=      5-min Rain = 0
KPD1 170913Z 35008KT 02/M07 A3013 RMK A01 T00241071  RH  050%=      5-min Rain = 0
KPD1 170914Z 35008KT 03/M07 A3013 RMK A01 T00251071  RH  049%=      5-min Rain = 0
KPD1 170915Z 35008KT 03/M07 A3013 RMK A01 T00251071  RH  049%=      5-min Rain = 0
KPD1 170916Z 34007KT 03/M07 A3013 RMK A01 T00261071  RH  049%=      5-min Rain = 0
KPD1 170917Z 34007KT 03/M07 A3013 RMK A01 T00261071  RH  049%=      5-min Rain = 0
KPD1 170918Z 34007KT 03/M07 A3013 RMK A01 T00261071  RH  049%=      5-min Rain = 0
KPD1 170919Z 34007KT 03/M07 A3013 RMK A01 T00261071  RH  049%=      5-min Rain = 0
KPD1 170920Z 34007KT 03/M07 A3013 RMK A01 T00251071  RH  049%=      5-min Rain = 0
KPD1 170921Z 35007KT 02/M07 A3013 RMK A01 T00241071  RH  049%=      5-min Rain = 0
KPD1 170922Z 34006KT 03/M07 A3013 RMK A01 T00251071  RH  049%=      5-min Rain = 0
KPD1 170923Z 35008KT 02/M07 A3013 RMK A01 T00241071  RH  049%=      5-min Rain = 0
KPD1 170924Z 34007KT 02/M07 A3014 RMK A01 T00241071  RH  049%=      5-min Rain = 0
KPD1 170925Z 34008KT 02/M07 A3014 RMK A01 T00241072  RH  049%=      5-min Rain = 0
KPD1 170926Z 34008KT 02/M07 A3014 RMK A01 T00241072  RH  049%=      5-min Rain = 0
KPD1 170927Z 34008KT 03/M07 A3014 RMK A01 T00251071  RH  049%=      5-min Rain = 0
KPD1 170928Z 34007KT 03/M07 A3014 RMK A01 T00251070  RH  049%=      5-min Rain = 0
KPD1 170929Z 33006KT 02/M07 A3014 RMK A01 T00241070  RH  050%=      5-min Rain = 0
KPD1 170930Z 33007KT 02/M07 A3014 RMK A01 T00231070  RH  050%=      5-min Rain = 0
KPD1 170931Z 33007KT 02/M07 A3014 RMK A01 T00221069  RH  051%=      5-min Rain = 0
KPD1 170932Z 33006KT 02/M07 A3014 RMK A01 T00201070  RH  051%=      5-min Rain = 0
KPD1 170933Z 33006KT 02/M07 A3014 RMK A01 T00181071  RH  052%=      5-min Rain = 0
KPD1 170934Z 33007KT 01/M07 A3014 RMK A01 T00141072  RH  052%=      5-min Rain = 0
KPD1 170935Z 33007KT 01/M07 A3013 RMK A01 T00111073  RH  053%=      5-min Rain = 0
KPD1 170936Z 33007KT 01/M07 A3013 RMK A01 T00101072  RH  054%=      5-min Rain = 0
KPD1 170937Z 33007KT 01/M07 A3013 RMK A01 T00101071  RH  055%=      5-min Rain = 0
KPD1 170938Z 33007KT 01/M07 A3013 RMK A01 T00101071  RH  055%=      5-min Rain = 0
KPD1 170939Z 33007KT 01/M07 A3013 RMK A01 T00101070  RH  055%=      5-min Rain = 0
KPD1 170940Z 33007KT 01/M07 A3013 RMK A01 T00101069  RH  056%=      5-min Rain = 0
KPD1 170941Z 33007KT 01/M07 A3013 RMK A01 T00101069  RH  056%=      5-min Rain = 0
KPD1 170942Z 33007KT 01/M07 A3014 RMK A01 T00101069  RH  056%=      5-min Rain = 0
KPD1 170943Z 33007KT 01/M07 A3014 RMK A01 T00101069  RH  056%=      5-min Rain = 0
KPD1 170944Z 33007KT 01/M07 A3014 RMK A01 T00091069  RH  056%=      5-min Rain = 0
KPD1 170945Z 33007KT 01/M07 A3014 RMK A01 T00081069  RH  056%=      5-min Rain = 0
KPD1 170946Z 33008KT 01/M07 A3014 RMK A01 T00071069  RH  057%=      5-min Rain = 0
KPD1 170947Z 33008KT 01/M07 A3014 RMK A01 T00071069  RH  057%=      5-min Rain = 0
KPD1 170948Z 33008KT 01/M07 A3014 RMK A01 T00061069  RH  057%=      5-min Rain = 0
KPD1 170949Z 33007KT 01/M07 A3014 RMK A01 T00061068  RH  058%=      5-min Rain = 0
KPD1 170950Z 33008KT 01/M07 A3014 RMK A01 T00061068  RH  058%=      5-min Rain = 0
KPD1 170951Z 33007KT 01/M07 A3014 RMK A01 T00061068  RH  058%=      5-min Rain = 0
KPD1 170952Z 33007KT 01/M07 A3014 RMK A01 T00061068  RH  058%=      5-min Rain = 0
KPD1 170953Z 33008KT 01/M07 A3014 RMK A01 T00071068  RH  057%=      5-min Rain = 0
KPD1 170954Z 33008KT 01/M07 A3014 RMK A01 T00071068  RH  058%=      5-min Rain = 0
KPD1 170955Z 33007KT 01/M07 A3014 RMK A01 T00061068  RH  058%=      5-min Rain = 0
KPD1 170956Z 33007KT 01/M07 A3014 RMK A01 T00061068  RH  058%=      5-min Rain = 0
KPD1 170957Z 33007KT 01/M07 A3013 RMK A01 T00051069  RH  058%=      5-min Rain = 0
KPD1 170958Z 33007KT 00/M07 A3013 RMK A01 T00041069  RH  058%=      5-min Rain = 0
KPD1 170959Z 33007KT 00/M07 A3013 RMK A01 T00041069  RH  058%=      5-min Rain = 0
KPD1 171000Z 34007KT 00/M07 A3013 RMK A01 T00031069  RH  058%=      5-min Rain = 0
KPD1 171001Z 33008KT 00/M07 A3013 RMK A01 T00031069  RH  059%=      5-min Rain = 0
KPD1 171002Z 33007KT 00/M07 A3013 RMK A01 T00041068  RH  059%=      5-min Rain = 0
KPD1 171003Z 33007KT 00/M07 A3013 RMK A01 T00031068  RH  059%=      5-min Rain = 0
KPD1 171004Z 33008KT 00/M07 A3013 RMK A01 T00031068  RH  059%=      5-min Rain = 0
KPD1 171005Z 33008KT 00/M07 A3013 RMK A01 T00031068  RH  059%=      5-min Rain = 0
KPD1 171006Z 33007KT 00/M07 A3013 RMK A01 T00031068  RH  059%=      5-min Rain = 0
KPD1 171007Z 33008KT 00/M07 A3013 RMK A01 T00041068  RH  059%=      5-min Rain = 0
KPD1 171008Z 33008KT 00/M07 A3013 RMK A01 T00031068  RH  059%=      5-min Rain = 0
KPD1 171009Z 33008KT 00/M07 A3013 RMK A01 T00031068  RH  059%=      5-min Rain = 0
KPD1 171010Z 33008KT 00/M07 A3013 RMK A01 T00031069  RH  058%=      5-min Rain = 0
KPD1 171011Z 33008KT 00/M07 A3013 RMK A01 T00031069  RH  058%=      5-min Rain = 0
KPD1 171012Z 34008KT 00/M07 A3013 RMK A01 T00041069  RH  058%=      5-min Rain = 0
KPD1 171013Z 34008KT 00/M07 A3013 RMK A01 T00041069  RH  058%=      5-min Rain = 0
KPD1 171014Z 34008KT 01/M07 A3013 RMK A01 T00051069  RH  058%=      5-min Rain = 0
KPD1 171015Z 34008KT 01/M07 A3013 RMK A01 T00051069  RH  058%=      5-min Rain = 0
KPD1 171016Z 34008KT 01/M07 A3013 RMK A01 T00061069  RH  057%=      5-min Rain = 0
KPD1 171017Z 34008KT 01/M07 A3013 RMK A01 T00071069  RH  057%=      5-min Rain = 0
KPD1 171018Z 34008KT 01/M07 A3013 RMK A01 T00081069  RH  056%=      5-min Rain = 0
KPD1 171019Z 34007KT 01/M07 A3013 RMK A01 T00081070  RH  056%=      5-min Rain = 0
KPD1 171020Z 34008KT 01/M07 A3013 RMK A01 T00081070  RH  056%=      5-min Rain = 0
KPD1 171021Z 34009KT 01/M07 A3013 RMK A01 T00091070  RH  056%=      5-min Rain = 0
KPD1 171022Z 34007KT 01/M07 A3013 RMK A01 T00101070  RH  055%=      5-min Rain = 0
KPD1 171023Z 34008KT 01/M07 A3013 RMK A01 T00101070  RH  055%=      5-min Rain = 0
KPD1 171024Z 34008KT 01/M07 A3013 RMK A01 T00101070  RH  055%=      5-min Rain = 0
KPD1 171025Z 34008KT 01/M07 A3013 RMK A01 T00101071  RH  055%=      5-min Rain = 0
KPD1 171026Z 34008KT 01/M07 A3013 RMK A01 T00111070  RH  055%=      5-min Rain = 0
KPD1 171027Z 34008KT 01/M07 A3013 RMK A01 T00111070  RH  055%=      5-min Rain = 0
KPD1 171028Z 34008KT 01/M07 A3013 RMK A01 T00111071  RH  054%=      5-min Rain = 0
KPD1 171029Z 34008KT 01/M07 A3013 RMK A01 T00111071  RH  054%=      5-min Rain = 0
KPD1 171030Z 34009KT 01/M07 A3013 RMK A01 T00111071  RH  054%=      5-min Rain = 0
KPD1 171031Z 34007KT 01/M07 A3013 RMK A01 T00121071  RH  054%=      5-min Rain = 0
KPD1 171032Z 34008KT 01/M07 A3013 RMK A01 T00121071  RH  054%=      5-min Rain = 0
KPD1 171033Z 34008KT 01/M07 A3013 RMK A01 T00121072  RH  054%=      5-min Rain = 0
KPD1 171034Z 34007KT 01/M07 A3013 RMK A01 T00131072  RH  053%=      5-min Rain = 0
KPD1 171035Z 34008KT 01/M07 A3013 RMK A01 T00131072  RH  053%=      5-min Rain = 0
KPD1 171036Z 34008KT 01/M07 A3013 RMK A01 T00121072  RH  053%=      5-min Rain = 0
KPD1 171037Z 35008KT 01/M07 A3013 RMK A01 T00121072  RH  053%=      5-min Rain = 0
KPD1 171038Z 34009KT 01/M07 A3013 RMK A01 T00121072  RH  053%=      5-min Rain = 0
KPD1 171039Z 34009KT 01/M07 A3013 RMK A01 T00121072  RH  053%=      5-min Rain = 0
KPD1 171040Z 34008KT 01/M07 A3013 RMK A01 T00121073  RH  053%=      5-min Rain = 0
KPD1 171041Z 34007KT 01/M07 A3013 RMK A01 T00121073  RH  053%=      5-min Rain = 0
KPD1 171042Z 34008KT 01/M07 A3013 RMK A01 T00121073  RH  053%=      5-min Rain = 0
KPD1 171043Z 34009KT 01/M07 A3013 RMK A01 T00121073  RH  053%=      5-min Rain = 0
KPD1 171044Z 34008KT 01/M07 A3013 RMK A01 T00131073  RH  053%=      5-min Rain = 0
KPD1 171045Z 34007KT 01/M07 A3013 RMK A01 T00131074  RH  052%=      5-min Rain = 0
KPD1 171046Z 34007KT 01/M07 A3013 RMK A01 T00131074  RH  052%=      5-min Rain = 0
KPD1 171047Z 34007KT 01/M07 A3013 RMK A01 T00131074  RH  052%=      5-min Rain = 0
KPD1 171048Z 34007KT 01/M07 A3013 RMK A01 T00131074  RH  052%=      5-min Rain = 0
KPD1 171049Z 34007KT 01/M08 A3013 RMK A01 T00131075  RH  052%=      5-min Rain = 0
KPD1 171050Z 35006KT 01/M08 A3013 RMK A01 T00131075  RH  052%=      5-min Rain = 0
KPD1 171051Z 34007KT 01/M08 A3013 RMK A01 T00141075  RH  052%=      5-min Rain = 0
KPD1 171052Z 35009KT 01/M08 A3013 RMK A01 T00141076  RH  051%=      5-min Rain = 0
KPD1 171053Z 35008KT 02/M08 A3012 RMK A01 T00161076  RH  051%=      5-min Rain = 0
KPD1 171054Z 35007KT 02/M08 A3012 RMK A01 T00171076  RH  050%=      5-min Rain = 0
KPD1 171055Z 35008KT 02/M08 A3012 RMK A01 T00171076  RH  050%=      5-min Rain = 0
KPD1 171056Z 35008KT 02/M08 A3012 RMK A01 T00181077  RH  049%=      5-min Rain = 0
KPD1 171057Z 35008KT 02/M08 A3012 RMK A01 T00191077  RH  049%=      5-min Rain = 0
KPD1 171058Z 34009KT 02/M08 A3012 RMK A01 T00191077  RH  049%=      5-min Rain = 0
KPD1 171059Z 35008KT 02/M08 A3012 RMK A01 T00201078  RH  048%=      5-min Rain = 0
KPD1 171100Z 35007KT 02/M08 A3013 RMK A01 T00201078  RH  048%=      5-min Rain = 0
KPD1 171101Z 35008KT 02/M08 A3013 RMK A01 T00201078  RH  048%=      5-min Rain = 0
KPD1 171102Z 35008KT 02/M08 A3013 RMK A01 T00201078  RH  048%=      5-min Rain = 0
KPD1 171103Z 35008KT 02/M08 A3013 RMK A01 T00201079  RH  048%=      5-min Rain = 0
KPD1 171104Z 35008KT 02/M08 A3013 RMK A01 T00211079  RH  047%=      5-min Rain = 0
KPD1 171105Z 35007KT 02/M08 A3013 RMK A01 T00211080  RH  047%=      5-min Rain = 0
KPD1 171106Z 35008KT 02/M08 A3013 RMK A01 T00211080  RH  047%=      5-min Rain = 0
KPD1 171107Z 36007KT 02/M08 A3013 RMK A01 T00221080  RH  047%=      5-min Rain = 0
KPD1 171108Z 36008KT 02/M08 A3013 RMK A01 T00231080  RH  047%=      5-min Rain = 0
KPD1 171109Z 36008KT 02/M08 A3013 RMK A01 T00231080  RH  046%=      5-min Rain = 0
KPD1 171110Z 35008KT 02/M08 A3013 RMK A01 T00231081  RH  046%=      5-min Rain = 0
KPD1 171111Z 36009KT 02/M08 A3013 RMK A01 T00231080  RH  046%=      5-min Rain = 0
KPD1 171112Z 35009KT 02/M08 A3013 RMK A01 T00231081  RH  046%=      5-min Rain = 0
KPD1 171113Z 36008KT 02/M08 A3013 RMK A01 T00231081  RH  046%=      5-min Rain = 0
KPD1 171114Z 36010KT 02/M08 A3013 RMK A01 T00231081  RH  046%=      5-min Rain = 0
KPD1 171115Z 36009KT 02/M08 A3013 RMK A01 T00231081  RH  046%=      5-min Rain = 0
KPD1 171116Z 35008KT 02/M08 A3013 RMK A01 T00231081  RH  046%=      5-min Rain = 0
KPD1 171117Z 35008KT 02/M08 A3013 RMK A01 T00231081  RH  046%=      5-min Rain = 0
KPD1 171118Z 35009KT 02/M08 A3013 RMK A01 T00221081  RH  046%=      5-min Rain = 0
KPD1 171119Z 36009KT 02/M08 A3013 RMK A01 T00221081  RH  047%=      5-min Rain = 0
KPD1 171120Z 36008KT 02/M08 A3013 RMK A01 T00221081  RH  047%=      5-min Rain = 0
KPD1 171121Z 35008KT 02/M08 A3013 RMK A01 T00221081  RH  047%=      5-min Rain = 0
KPD1 171122Z 36008KT 02/M08 A3013 RMK A01 T00221081  RH  047%=      5-min Rain = 0
KPD1 171123Z 35008KT 02/M08 A3013 RMK A01 T00221081  RH  047%=      5-min Rain = 0
KPD1 171124Z 35009KT 02/M08 A3013 RMK A01 T00211081  RH  047%=      5-min Rain = 0
KPD1 171125Z 35008KT 02/M08 A3013 RMK A01 T00211081  RH  047%=      5-min Rain = 0
KPD1 171126Z 35007KT 02/M08 A3013 RMK A01 T00211081  RH  047%=      5-min Rain = 0
KPD1 171127Z 35009G14KT 02/M08 A3013 RMK A01 T00211081  RH  047%=      5-min Rain = 0
KPD1 171128Z 35008KT 02/M08 A3013 RMK A01 T00211081  RH  047%=      5-min Rain = 0
KPD1 171129Z 35009KT 02/M08 A3013 RMK A01 T00211081  RH  047%=      5-min Rain = 0
KPD1 171130Z 35009KT 02/M08 A3013 RMK A01 T00211081  RH  047%=      5-min Rain = 0
KPD1 171131Z 35009KT 02/M08 A3013 RMK A01 T00211081  RH  047%=      5-min Rain = 0
KPD1 171132Z 35009KT 02/M08 A3013 RMK A01 T00201081  RH  047%=      5-min Rain = 0
KPD1 171133Z 35010KT 02/M08 A3013 RMK A01 T00201081  RH  047%=      5-min Rain = 0
KPD1 171134Z 35007KT 02/M08 A3013 RMK A01 T00211081  RH  047%=      5-min Rain = 0
KPD1 171135Z 35008KT 02/M08 A3013 RMK A01 T00211081  RH  047%=      5-min Rain = 0
KPD1 171136Z 35009KT 02/M08 A3013 RMK A01 T00201081  RH  047%=      5-min Rain = 0
KPD1 171137Z 35008KT 02/M08 A3013 RMK A01 T00191081  RH  047%=      5-min Rain = 0
KPD1 171138Z 35008KT 02/M08 A3013 RMK A01 T00191081  RH  048%=      5-min Rain = 0
KPD1 171139Z 35009KT 02/M08 A3013 RMK A01 T00181081  RH  048%=      5-min Rain = 0
KPD1 171140Z 35007KT 02/M08 A3013 RMK A01 T00181081  RH  048%=      5-min Rain = 0
KPD1 171141Z 35008KT 02/M08 A3013 RMK A01 T00181081  RH  048%=      5-min Rain = 0
KPD1 171142Z 34008KT 02/M08 A3014 RMK A01 T00181081  RH  048%=      5-min Rain = 0
KPD1 171143Z 35005KT 02/M08 A3014 RMK A01 T00181081  RH  048%=      5-min Rain = 0
KPD1 171144Z 35007KT 02/M08 A3014 RMK A01 T00181081  RH  048%=      5-min Rain = 0
KPD1 171145Z 36006KT 02/M08 A3014 RMK A01 T00181082  RH  048%=      5-min Rain = 0
KPD1 171146Z 35007KT 02/M08 A3014 RMK A01 T00171082  RH  048%=      5-min Rain = 0
KPD1 171147Z 35006KT 02/M08 A3014 RMK A01 T00171082  RH  048%=      5-min Rain = 0
KPD1 171148Z 35007KT 02/M08 A3014 RMK A01 T00161081  RH  048%=      5-min Rain = 0
KPD1 171149Z 35008KT 02/M08 A3014 RMK A01 T00161081  RH  048%=      5-min Rain = 0
KPD1 171150Z 35006KT 02/M08 A3014 RMK A01 T00151082  RH  049%=      5-min Rain = 0
KPD1 171151Z 35008KT 02/M08 A3014 RMK A01 T00151081  RH  049%=      5-min Rain = 0
KPD1 171152Z 36006KT 02/M08 A3014 RMK A01 T00151081  RH  049%=      5-min Rain = 0
KPD1 171153Z 36007KT 02/M08 A3014 RMK A01 T00151081  RH  049%=      5-min Rain = 0
KPD1 171154Z 35007KT 02/M08 A3014 RMK A01 T00151081  RH  049%=      5-min Rain = 0
KPD1 171155Z 35006KT 02/M08 A3014 RMK A01 T00151081  RH  049%=      5-min Rain = 0
KPD1 171156Z 35007KT 02/M08 A3014 RMK A01 T00151081  RH  049%=      5-min Rain = 0
KPD1 171157Z 35006KT 02/M08 A3014 RMK A01 T00151081  RH  049%=      5-min Rain = 0
KPD1 171158Z 35007KT 02/M08 A3014 RMK A01 T00151081  RH  049%=      5-min Rain = 0
KPD1 171159Z 35007KT 02/M08 A3014 RMK A01 T00151081  RH  049%=      5-min Rain = 0
KPD1 171200Z 35007KT 01/M08 A3014 RMK A01 T00141081  RH  049%=      5-min Rain = 0
KPD1 171201Z 35007KT 01/M08 A3014 RMK A01 T00141081  RH  049%=      5-min Rain = 0
KPD1 171202Z 35007KT 01/M08 A3014 RMK A01 T00131081  RH  049%=      5-min Rain = 0
KPD1 171203Z 35008KT 01/M08 A3014 RMK A01 T00131081  RH  049%=      5-min Rain = 0
KPD1 171204Z 35009KT 01/M08 A3014 RMK A01 T00141081  RH  049%=      5-min Rain = 0
KPD1 171205Z 35007KT 01/M08 A3014 RMK A01 T00141081  RH  049%=      5-min Rain = 0
KPD1 171206Z 35008KT 02/M08 A3014 RMK A01 T00151081  RH  049%=      5-min Rain = 0
KPD1 171207Z 35008KT 02/M08 A3014 RMK A01 T00151081  RH  049%=      5-min Rain = 0
KPD1 171208Z 35007KT 02/M08 A3014 RMK A01 T00151081  RH  049%=      5-min Rain = 0
KPD1 171209Z 36006KT 02/M08 A3014 RMK A01 T00151081  RH  049%=      5-min Rain = 0
KPD1 171210Z 36008KT 01/M08 A3014 RMK A01 T00141081  RH  049%=      5-min Rain = 0
KPD1 171211Z 00006KT 01/M08 A3014 RMK A01 T00141081  RH  049%=      5-min Rain = 0
KPD1 171212Z 01007KT 01/M08 A3014 RMK A01 T00141081  RH  049%=      5-min Rain = 0
KPD1 171213Z 36007KT 01/M08 A3014 RMK A01 T00131081  RH  049%=      5-min Rain = 0
KPD1 171214Z 36006KT 01/M08 A3014 RMK A01 T00131081  RH  050%=      5-min Rain = 0
KPD1 171215Z 00007KT 01/M08 A3014 RMK A01 T00121081  RH  050%=      5-min Rain = 0
KPD1 171216Z 35008KT 01/M08 A3015 RMK A01 T00121081  RH  050%=      5-min Rain = 0
KPD1 171217Z 35007KT 01/M08 A3015 RMK A01 T00121081  RH  050%=      5-min Rain = 0
KPD1 171218Z 35007KT 01/M08 A3015 RMK A01 T00121081  RH  050%=      5-min Rain = 0
KPD1 171219Z 36007KT 01/M08 A3015 RMK A01 T00121081  RH  050%=      5-min Rain = 0
KPD1 171220Z 35008KT 01/M08 A3015 RMK A01 T00121081  RH  050%=      5-min Rain = 0
KPD1 171221Z 36008KT 01/M08 A3015 RMK A01 T00121081  RH  050%=      5-min Rain = 0
KPD1 171222Z 35007KT 01/M08 A3015 RMK A01 T00121081  RH  050%=      5-min Rain = 0
KPD1 171223Z 35008KT 01/M08 A3015 RMK A01 T00121081  RH  050%=      5-min Rain = 0
KPD1 171224Z 36008KT 01/M08 A3015 RMK A01 T00121081  RH  050%=      5-min Rain = 0
KPD1 171225Z 36009KT 01/M08 A3015 RMK A01 T00121081  RH  050%=      5-min Rain = 0
KPD1 171226Z 35009KT 01/M08 A3015 RMK A01 T00131081  RH  050%=      5-min Rain = 0
KPD1 171227Z 35008KT 01/M08 A3015 RMK A01 T00131081  RH  049%=      5-min Rain = 0
KPD1 171228Z 35009KT 01/M08 A3015 RMK A01 T00131081  RH  049%=      5-min Rain = 0
KPD1 171229Z 35008KT 01/M08 A3015 RMK A01 T00131081  RH  049%=      5-min Rain = 0
KPD1 171230Z 35007KT 01/M08 A3015 RMK A01 T00131081  RH  050%=      5-min Rain = 0
KPD1 171231Z 35006KT 01/M08 A3015 RMK A01 T00121081  RH  050%=      5-min Rain = 0
KPD1 171232Z 35008KT 01/M08 A3015 RMK A01 T00121082  RH  050%=      5-min Rain = 0
KPD1 171233Z 35008KT 01/M08 A3015 RMK A01 T00121081  RH  050%=      5-min Rain = 0
KPD1 171234Z 35008KT 01/M08 A3015 RMK A01 T00111081  RH  050%=      5-min Rain = 0
KPD1 171235Z 35008KT 01/M08 A3015 RMK A01 T00111082  RH  050%=      5-min Rain = 0
KPD1 171236Z 36007KT 01/M08 A3015 RMK A01 T00121081  RH  050%=      5-min Rain = 0
KPD1 171237Z 35007KT 01/M08 A3015 RMK A01 T00121081  RH  050%=      5-min Rain = 0
KPD1 171238Z 35007KT 01/M08 A3015 RMK A01 T00121081  RH  050%=      5-min Rain = 0
KPD1 171239Z 36007KT 01/M08 A3015 RMK A01 T00131081  RH  050%=      5-min Rain = 0
KPD1 171240Z 35008KT 01/M08 A3015 RMK A01 T00121081  RH  050%=      5-min Rain = 0
KPD1 171241Z 35007KT 01/M08 A3015 RMK A01 T00131081  RH  050%=      5-min Rain = 0
KPD1 171242Z 36008KT 01/M08 A3015 RMK A01 T00121081  RH  050%=      5-min Rain = 0
KPD1 171243Z 00006KT 01/M08 A3015 RMK A01 T00121081  RH  050%=      5-min Rain = 0
KPD1 171244Z 36007KT 01/M08 A3015 RMK A01 T00121081  RH  050%=      5-min Rain = 0
KPD1 171245Z 34006KT 01/M08 A3015 RMK A01 T00111082  RH  050%=      5-min Rain = 0
KPD1 171246Z 35007KT 01/M08 A3015 RMK A01 T00111082  RH  050%=      5-min Rain = 0
KPD1 171247Z 35006KT 01/M08 A3015 RMK A01 T00111081  RH  050%=      5-min Rain = 0
KPD1 171248Z 36006KT 01/M08 A3015 RMK A01 T00111081  RH  050%=      5-min Rain = 0
KPD1 171249Z 36006KT 01/M08 A3015 RMK A01 T00111081  RH  050%=      5-min Rain = 0
KPD1 171250Z 36007KT 01/M08 A3015 RMK A01 T00101081  RH  050%=      5-min Rain = 0
KPD1 171251Z 35006KT 01/M08 A3015 RMK A01 T00101081  RH  051%=      5-min Rain = 0
KPD1 171252Z 35007KT 01/M08 A3015 RMK A01 T00101081  RH  051%=      5-min Rain = 0
KPD1 171253Z 35006KT 01/M08 A3015 RMK A01 T00101081  RH  051%=      5-min Rain = 0
KPD1 171254Z 34007KT 01/M08 A3015 RMK A01 T00101081  RH  051%=      5-min Rain = 0
KPD1 171255Z 34007KT 01/M08 A3015 RMK A01 T00101081  RH  051%=      5-min Rain = 0
KPD1 171256Z 35006KT 01/M08 A3015 RMK A01 T00101081  RH  050%=      5-min Rain = 0
KPD1 171257Z 35005KT 01/M08 A3015 RMK A01 T00101081  RH  050%=      5-min Rain = 0
KPD1 171258Z 36004KT 01/M08 A3015 RMK A01 T00101081  RH  050%=      5-min Rain = 0
KPD1 171259Z 35005KT 01/M08 A3015 RMK A01 T00091082  RH  051%=      5-min Rain = 0
KPD1 171300Z 35006KT 01/M08 A3015 RMK A01 T00091082  RH  051%=      5-min Rain = 0
KPD1 171301Z 35004KT 01/M08 A3015 RMK A01 T00081082  RH  051%=      5-min Rain = 0
KPD1 171302Z 36005KT 01/M08 A3015 RMK A01 T00081082  RH  051%=      5-min Rain = 0
KPD1 171303Z 35005KT 01/M08 A3015 RMK A01 T00071083  RH  051%=      5-min Rain = 0
KPD1 171304Z 35005KT 01/M08 A3015 RMK A01 T00071082  RH  051%=      5-min Rain = 0
KPD1 171305Z 34005KT 01/M08 A3015 RMK A01 T00061082  RH  052%=      5-min Rain = 0
KPD1 171306Z 36005KT 01/M08 A3015 RMK A01 T00061082  RH  052%=      5-min Rain = 0
KPD1 171307Z 36005KT 01/M08 A3016 RMK A01 T00051082  RH  052%=      5-min Rain = 0
KPD1 171308Z 35005KT 01/M08 A3016 RMK A01 T00051082  RH  052%=      5-min Rain = 0
KPD1 171309Z 35005KT 00/M08 A3015 RMK A01 T00041082  RH  052%=      5-min Rain = 0
KPD1 171310Z 35007KT 00/M08 A3015 RMK A01 T00031082  RH  053%=      5-min Rain = 0
KPD1 171311Z 34006KT 00/M08 A3015 RMK A01 T00031081  RH  053%=      5-min Rain = 0
KPD1 171312Z 35005KT 00/M08 A3015 RMK A01 T00041080  RH  053%=      5-min Rain = 0
KPD1 171313Z 34006KT 01/M08 A3015 RMK A01 T00051080  RH  053%=      5-min Rain = 0
KPD1 171314Z 35005KT 01/M08 A3015 RMK A01 T00051080  RH  053%=      5-min Rain = 0
KPD1 171315Z 35006KT 01/M08 A3015 RMK A01 T00051080  RH  053%=      5-min Rain = 0
KPD1 171316Z 35006KT 01/M08 A3016 RMK A01 T00051080  RH  053%=      5-min Rain = 0
KPD1 171317Z 36006KT 01/M08 A3016 RMK A01 T00051080  RH  053%=      5-min Rain = 0
KPD1 171318Z 35006KT 00/M08 A3016 RMK A01 T00041081  RH  053%=      5-min Rain = 0
KPD1 171319Z 35005KT 00/M08 A3016 RMK A01 T00041081  RH  053%=      5-min Rain = 0
KPD1 171320Z 35005KT 00/M08 A3016 RMK A01 T00041081  RH  053%=      5-min Rain = 0
KPD1 171321Z 35006KT 00/M08 A3016 RMK A01 T00031081  RH  053%=      5-min Rain = 0
KPD1 171322Z 35007KT 00/M08 A3016 RMK A01 T00031081  RH  053%=      5-min Rain = 0
KPD1 171323Z 35006KT 00/M08 A3016 RMK A01 T00031080  RH  054%=      5-min Rain = 0
KPD1 171324Z 35006KT 00/M08 A3016 RMK A01 T00031080  RH  054%=      5-min Rain = 0
KPD1 171325Z 35006KT 00/M08 A3016 RMK A01 T00031080  RH  054%=      5-min Rain = 0
KPD1 171326Z 35006KT 00/M08 A3016 RMK A01 T00031080  RH  054%=      5-min Rain = 0
KPD1 171327Z 35006KT 00/M08 A3016 RMK A01 T00021080  RH  054%=      5-min Rain = 0
KPD1 171328Z 35007KT 00/M08 A3017 RMK A01 T00021079  RH  054%=      5-min Rain = 0
KPD1 171329Z 34007KT 00/M08 A3017 RMK A01 T00031079  RH  054%=      5-min Rain = 0
KPD1 171330Z 35007KT 00/M08 A3017 RMK A01 T00031079  RH  054%=      5-min Rain = 0
KPD1 171331Z 35006KT 00/M08 A3017 RMK A01 T00041078  RH  054%=      5-min Rain = 0
KPD1 171332Z 34008KT 00/M08 A3017 RMK A01 T00031079  RH  054%=      5-min Rain = 0
KPD1 171333Z 35008KT 00/M08 A3017 RMK A01 T00031079  RH  054%=      5-min Rain = 0
KPD1 171334Z 35006KT 00/M08 A3017 RMK A01 T00041078  RH  054%=      5-min Rain = 0
KPD1 171335Z 35007KT 00/M08 A3017 RMK A01 T00041078  RH  054%=      5-min Rain = 0
KPD1 171336Z 35007KT 00/M08 A3018 RMK A01 T00041078  RH  054%=      5-min Rain = 0
KPD1 171337Z 35006KT 01/M08 A3018 RMK A01 T00051078  RH  054%=      5-min Rain = 0
KPD1 171338Z 35007KT 00/M08 A3018 RMK A01 T00041078  RH  054%=      5-min Rain = 0
KPD1 171339Z 35008KT 00/M08 A3018 RMK A01 T00041078  RH  054%=      5-min Rain = 0
KPD1 171340Z 35005KT 00/M08 A3017 RMK A01 T00041078  RH  054%=      5-min Rain = 0
KPD1 171341Z 35007KT 00/M08 A3017 RMK A01 T00041078  RH  054%=      5-min Rain = 0
KPD1 171342Z 35007KT 00/M08 A3017 RMK A01 T00041078  RH  054%=      5-min Rain = 0
KPD1 171343Z 36007KT 00/M08 A3017 RMK A01 T00041078  RH  054%=      5-min Rain = 0
KPD1 171344Z 36008KT 00/M08 A3017 RMK A01 T00041078  RH  054%=      5-min Rain = 0
KPD1 171345Z 35008KT 00/M08 A3017 RMK A01 T00041078  RH  054%=      5-min Rain = 0
KPD1 171346Z 35007KT 00/M08 A3017 RMK A01 T00041078  RH  054%=      5-min Rain = 0
KPD1 171347Z 35006KT 00/M08 A3017 RMK A01 T00041078  RH  054%=      5-min Rain = 0
KPD1 171348Z 36007KT 00/M08 A3017 RMK A01 T00041077  RH  054%=      5-min Rain = 0
KPD1 171349Z 35008KT 01/M08 A3017 RMK A01 T00051077  RH  054%=      5-min Rain = 0
KPD1 171350Z 35007KT 01/M08 A3017 RMK A01 T00051077  RH  054%=      5-min Rain = 0
KPD1 171351Z 00008KT 01/M08 A3017 RMK A01 T00051077  RH  054%=      5-min Rain = 0
KPD1 171352Z 00007KT 01/M08 A3017 RMK A01 T00051076  RH  054%=      5-min Rain = 0
KPD1 171353Z 35007KT 01/M08 A3017 RMK A01 T00051076  RH  054%=      5-min Rain = 0
KPD1 171354Z 36007KT 01/M08 A3017 RMK A01 T00051076  RH  054%=      5-min Rain = 0
KPD1 171355Z 35006KT 01/M08 A3017 RMK A01 T00051076  RH  054%=      5-min Rain = 0
KPD1 171356Z 35008KT 01/M08 A3017 RMK A01 T00051077  RH  054%=      5-min Rain = 0
KPD1 171357Z 35007KT 00/M08 A3017 RMK A01 T00041077  RH  054%=      5-min Rain = 0
KPD1 171358Z 35006KT 01/M08 A3017 RMK A01 T00051076  RH  055%=      5-min Rain = 0
KPD1 171359Z 35007KT 01/M08 A3017 RMK A01 T00051076  RH  055%=      5-min Rain = 0
KPD1 171400Z 35007KT 01/M08 A3017 RMK A01 T00051076  RH  055%=      5-min Rain = 0
KPD1 171401Z 35008KT 01/M08 A3017 RMK A01 T00051076  RH  055%=      5-min Rain = 0
KPD1 171402Z 36010KT 01/M08 A3017 RMK A01 T00051075  RH  055%=      5-min Rain = 0
KPD1 171403Z 36007KT 01/M08 A3017 RMK A01 T00061075  RH  055%=      5-min Rain = 0
KPD1 171404Z 35009KT 01/M08 A3017 RMK A01 T00061075  RH  055%=      5-min Rain = 0
KPD1 171405Z 00008KT 01/M08 A3017 RMK A01 T00061075  RH  054%=      5-min Rain = 0
KPD1 171406Z 36008KT 01/M08 A3017 RMK A01 T00061075  RH  054%=      5-min Rain = 0
KPD1 171407Z 00006KT 01/M08 A3017 RMK A01 T00071075  RH  054%=      5-min Rain = 0
KPD1 171408Z 35008KT 01/M08 A3017 RMK A01 T00071075  RH  054%=      5-min Rain = 0
KPD1 171409Z 36008KT 01/M08 A3017 RMK A01 T00061075  RH  054%=      5-min Rain = 0
KPD1 171410Z 36008KT 01/M08 A3017 RMK A01 T00071075  RH  054%=      5-min Rain = 0
KPD1 171411Z 35006KT 01/M08 A3017 RMK A01 T00071075  RH  054%=      5-min Rain = 0
KPD1 171412Z 36007KT 01/M08 A3017 RMK A01 T00071075  RH  054%=      5-min Rain = 0
KPD1 171413Z 00008KT 01/M08 A3017 RMK A01 T00071075  RH  054%=      5-min Rain = 0
KPD1 171414Z 36007KT 01/M08 A3017 RMK A01 T00061075  RH  054%=      5-min Rain = 0
KPD1 171415Z 35006KT 01/M08 A3017 RMK A01 T00071075  RH  054%=      5-min Rain = 0
KPD1 171416Z 36006KT 01/M08 A3017 RMK A01 T00061075  RH  055%=      5-min Rain = 0
KPD1 171417Z 35007KT 01/M08 A3017 RMK A01 T00061075  RH  055%=      5-min Rain = 0
KPD1 171418Z 35006KT 01/M08 A3017 RMK A01 T00061075  RH  055%=      5-min Rain = 0
KPD1 171419Z 35006KT 01/M08 A3017 RMK A01 T00061075  RH  055%=      5-min Rain = 0
KPD1 171420Z 35006KT 01/M08 A3017 RMK A01 T00061075  RH  055%=      5-min Rain = 0
KPD1 171421Z 35006KT 01/M07 A3017 RMK A01 T00061074  RH  055%=      5-min Rain = 0
KPD1 171422Z 35006KT 01/M07 A3017 RMK A01 T00061074  RH  055%=      5-min Rain = 0
KPD1 171423Z 35007KT 01/M07 A3017 RMK A01 T00061074  RH  055%=      5-min Rain = 0
KPD1 171424Z 36007KT 01/M07 A3017 RMK A01 T00061074  RH  055%=      5-min Rain = 0
KPD1 171425Z 36007KT 01/M07 A3017 RMK A01 T00061074  RH  055%=      5-min Rain = 0
KPD1 171426Z 36006KT 01/M07 A3017 RMK A01 T00061074  RH  055%=      5-min Rain = 0
KPD1 171427Z 35007KT 01/M07 A3017 RMK A01 T00051074  RH  055%=      5-min Rain = 0
KPD1 171428Z 35007KT 01/M07 A3017 RMK A01 T00051074  RH  055%=      5-min Rain = 0
KPD1 171429Z 36007KT 01/M07 A3017 RMK A01 T00061074  RH  055%=      5-min Rain = 0
KPD1 171430Z 36006KT 01/M07 A3017 RMK A01 T00051074  RH  055%=      5-min Rain = 0
KPD1 171431Z 36006KT 01/M07 A3017 RMK A01 T00051074  RH  055%=      5-min Rain = 0
KPD1 171432Z 35008KT 01/M07 A3017 RMK A01 T00051074  RH  055%=      5-min Rain = 0
KPD1 171433Z 35007KT 01/M07 A3018 RMK A01 T00051074  RH  055%=      5-min Rain = 0
KPD1 171434Z 35007KT 01/M07 A3018 RMK A01 T00061074  RH  055%=      5-min Rain = 0
KPD1 171435Z 35007KT 01/M07 A3018 RMK A01 T00061074  RH  055%=      5-min Rain = 0
KPD1 171436Z 35008KT 01/M07 A3018 RMK A01 T00061074  RH  055%=      5-min Rain = 0
KPD1 171437Z 36008KT 01/M07 A3018 RMK A01 T00061074  RH  055%=      5-min Rain = 0
KPD1 171438Z 35008KT 01/M07 A3018 RMK A01 T00061074  RH  055%=      5-min Rain = 0
KPD1 171439Z 35007KT 01/M07 A3018 RMK A01 T00061074  RH  055%=      5-min Rain = 0
KPD1 171440Z 35008KT 01/M07 A3018 RMK A01 T00061074  RH  055%=      5-min Rain = 0
KPD1 171441Z 35009KT 01/M07 A3018 RMK A01 T00061074  RH  055%=      5-min Rain = 0
KPD1 171442Z 35008KT 01/M07 A3018 RMK A01 T00071073  RH  055%=      5-min Rain = 0
KPD1 171443Z 35008KT 01/M07 A3018 RMK A01 T00071073  RH  055%=      5-min Rain = 0
KPD1 171444Z 35007KT 01/M07 A3018 RMK A01 T00071073  RH  055%=      5-min Rain = 0
KPD1 171445Z 35007G12KT 01/M07 A3019 RMK A01 T00071073  RH  055%=      5-min Rain = 0
KPD1 171446Z 35008KT 01/M07 A3019 RMK A01 T00071073  RH  055%=      5-min Rain = 0
KPD1 171447Z 35008KT 01/M07 A3019 RMK A01 T00081073  RH  055%=      5-min Rain = 0
KPD1 171448Z 35008KT 01/M07 A3019 RMK A01 T00081072  RH  055%=      5-min Rain = 0
KPD1 171449Z 35008KT 01/M07 A3019 RMK A01 T00081072  RH  055%=      5-min Rain = 0
KPD1 171450Z 35007KT 01/M07 A3019 RMK A01 T00081072  RH  055%=      5-min Rain = 0
KPD1 171451Z 35007KT 01/M07 A3019 RMK A01 T00091072  RH  055%=      5-min Rain = 0
KPD1 171452Z 35009KT 01/M07 A3019 RMK A01 T00091072  RH  055%=      5-min Rain = 0
KPD1 171453Z 35008KT 01/M07 A3019 RMK A01 T00101072  RH  054%=      5-min Rain = 0
KPD1 171454Z 35009KT 01/M07 A3019 RMK A01 T00111071  RH  054%=      5-min Rain = 0
KPD1 171455Z 35009KT 01/M07 A3019 RMK A01 T00131070  RH  054%=      5-min Rain = 0
KPD1 171456Z 36007KT 01/M07 A3019 RMK A01 T00141070  RH  054%=      5-min Rain = 0
KPD1 171457Z 35006KT 02/M07 A3019 RMK A01 T00151070  RH  053%=      5-min Rain = 0
KPD1 171458Z 36007KT 02/M07 A3019 RMK A01 T00161070  RH  053%=      5-min Rain = 0
KPD1 171459Z 35008KT 02/M07 A3019 RMK A01 T00161070  RH  053%=      5-min Rain = 0
KPD1 171500Z 35005KT 02/M07 A3019 RMK A01 T00171070  RH  053%=      5-min Rain = 0
KPD1 171501Z 35007KT 02/M07 A3019 RMK A01 T00181069  RH  052%=      5-min Rain = 0
KPD1 171502Z 35006KT 02/M07 A3019 RMK A01 T00191069  RH  052%=      5-min Rain = 0
KPD1 171503Z 35006KT 02/M07 A3019 RMK A01 T00201068  RH  052%=      5-min Rain = 0
KPD1 171504Z 35009KT 02/M07 A3019 RMK A01 T00211068  RH  052%=      5-min Rain = 0
KPD1 171505Z 35008KT 02/M07 A3019 RMK A01 T00211068  RH  052%=      5-min Rain = 0
KPD1 171506Z 34009KT 02/M07 A3019 RMK A01 T00221069  RH  051%=      5-min Rain = 0
KPD1 171507Z 35007KT 02/M07 A3019 RMK A01 T00221069  RH  051%=      5-min Rain = 0
KPD1 171508Z 36009KT 02/M07 A3019 RMK A01 T00211069  RH  051%=      5-min Rain = 0
KPD1 171509Z 36008KT 02/M07 A3019 RMK A01 T00211069  RH  051%=      5-min Rain = 0
KPD1 171510Z 35006KT 02/M07 A3019 RMK A01 T00211070  RH  051%=      5-min Rain = 0
KPD1 171511Z 35006KT 02/M07 A3019 RMK A01 T00201070  RH  051%=      5-min Rain = 0
KPD1 171512Z 35009KT 02/M07 A3019 RMK A01 T00211069  RH  051%=      5-min Rain = 0
KPD1 171513Z 36008KT 02/M07 A3019 RMK A01 T00221068  RH  051%=      5-min Rain = 0
KPD1 171514Z 35007KT 02/M07 A3019 RMK A01 T00241067  RH  051%=      5-min Rain = 0
KPD1 171515Z 34007KT 03/M07 A3019 RMK A01 T00251067  RH  051%=      5-min Rain = 0
KPD1 171516Z 35006KT 03/M07 A3019 RMK A01 T00251068  RH  050%=      5-min Rain = 0
KPD1 171517Z 35007KT 03/M07 A3019 RMK A01 T00251068  RH  050%=      5-min Rain = 0
KPD1 171518Z 01008KT 03/M07 A3019 RMK A01 T00261068  RH  050%=      5-min Rain = 0
KPD1 171519Z 00008KT 03/M07 A3019 RMK A01 T00251068  RH  050%=      5-min Rain = 0
KPD1 171520Z 00006KT 02/M07 A3019 RMK A01 T00241068  RH  050%=      5-min Rain = 0
KPD1 171521Z 36006KT 03/M07 A3019 RMK A01 T00251068  RH  050%=      5-min Rain = 0
KPD1 171522Z 35007KT 03/M07 A3019 RMK A01 T00261067  RH  050%=      5-min Rain = 0
KPD1 171523Z 35007KT 03/M07 A3019 RMK A01 T00261067  RH  050%=      5-min Rain = 0
KPD1 171524Z 35006KT 03/M07 A3019 RMK A01 T00271068  RH  050%=      5-min Rain = 0
KPD1 171525Z 36008KT 03/M07 A3019 RMK A01 T00271067  RH  050%=      5-min Rain = 0
KPD1 171526Z 01007KT 03/M07 A3019 RMK A01 T00281067  RH  050%=      5-min Rain = 0
KPD1 171527Z 36006KT 03/M07 A3019 RMK A01 T00271067  RH  050%=      5-min Rain = 0
KPD1 171528Z 00009KT 03/M07 A3019 RMK A01 T00271068  RH  050%=      5-min Rain = 0
KPD1 171529Z 36006KT 03/M07 A3019 RMK A01 T00271068  RH  050%=      5-min Rain = 0
KPD1 171530Z 00007KT 03/M07 A3019 RMK A01 T00261067  RH  050%=      5-min Rain = 0
KPD1 171531Z 00008KT 03/M07 A3019 RMK A01 T00271068  RH  050%=      5-min Rain = 0
KPD1 171532Z 01007KT 03/M07 A3019 RMK A01 T00271067  RH  050%=      5-min Rain = 0
KPD1 171533Z 36008KT 03/M07 A3019 RMK A01 T00271067  RH  050%=      5-min Rain = 0
KPD1 171534Z 36007KT 03/M07 A302 RMK A01 T00281067  RH  050%=      5-min Rain = 0
KPD1 171535Z 36009KT 03/M07 A302 RMK A01 T00291066  RH  050%=      5-min Rain = 0
KPD1 171536Z 00007KT 03/M07 A302 RMK A01 T00291067  RH  049%=      5-min Rain = 0
KPD1 171537Z 35007KT 03/M07 A302 RMK A01 T00291067  RH  050%=      5-min Rain = 0
KPD1 171538Z 01007KT 03/M07 A302 RMK A01 T00291066  RH  050%=      5-min Rain = 0
KPD1 171539Z 35008KT 03/M07 A302 RMK A01 T00301065  RH  050%=      5-min Rain = 0
KPD1 171540Z 36007KT 03/M07 A302 RMK A01 T00291066  RH  049%=      5-min Rain = 0
KPD1 171541Z 35007KT 03/M07 A302 RMK A01 T00291065  RH  050%=      5-min Rain = 0
KPD1 171542Z 35007KT 03/M07 A302 RMK A01 T00301065  RH  050%=      5-min Rain = 0
KPD1 171543Z 35006KT 03/M06 A302 RMK A01 T00311064  RH  050%=      5-min Rain = 0
KPD1 171544Z 36008KT 03/M06 A302 RMK A01 T00311064  RH  050%=      5-min Rain = 0
KPD1 171545Z 00006KT 03/M07 A302 RMK A01 T00311065  RH  049%=      5-min Rain = 0
KPD1 171546Z 35007KT 03/M06 A302 RMK A01 T00311064  RH  050%=      5-min Rain = 0
KPD1 171547Z 36006KT 03/M06 A302 RMK A01 T00331063  RH  050%=      5-min Rain = 0
KPD1 171548Z 35006KT 03/M06 A302 RMK A01 T00341061  RH  050%=      5-min Rain = 0
KPD1 171549Z 35008KT 04/M06 A302 RMK A01 T00351062  RH  049%=      5-min Rain = 0
KPD1 171550Z 35007KT 04/M06 A302 RMK A01 T00351062  RH  049%=      5-min Rain = 0
KPD1 171551Z 35008KT 04/M06 A302 RMK A01 T00351062  RH  049%=      5-min Rain = 0
KPD1 171552Z 36007KT 04/M06 A302 RMK A01 T00351062  RH  049%=      5-min Rain = 0
KPD1 171553Z 35006KT 04/M06 A302 RMK A01 T00361061  RH  049%=      5-min Rain = 0
KPD1 171554Z 00007KT 04/M06 A302 RMK A01 T00371061  RH  049%=      5-min Rain = 0
KPD1 171555Z 01007KT 04/M06 A302 RMK A01 T00371062  RH  049%=      5-min Rain = 0
KPD1 171556Z 35007KT 04/M06 A302 RMK A01 T00361061  RH  049%=      5-min Rain = 0
KPD1 171557Z 36005KT 04/M06 A302 RMK A01 T00371060  RH  049%=      5-min Rain = 0
KPD1 171558Z 01006KT 04/M06 A302 RMK A01 T00381059  RH  049%=      5-min Rain = 0
KPD1 171559Z 36006KT 04/M06 A302 RMK A01 T00391060  RH  048%=      5-min Rain = 0
KPD1 171600Z 00005KT 04/M06 A302 RMK A01 T00391060  RH  048%=      5-min Rain = 0
KPD1 171601Z 01005KT 04/M06 A302 RMK A01 T00391060  RH  048%=      5-min Rain = 0
KPD1 171602Z 36003KT 04/M06 A302 RMK A01 T00391060  RH  048%=      5-min Rain = 0
KPD1 171603Z 34006KT 04/M06 A302 RMK A01 T00401058  RH  049%=      5-min Rain = 0
KPD1 171604Z 35004KT 04/M06 A302 RMK A01 T00421058  RH  048%=      5-min Rain = 0
KPD1 171605Z 35004KT 04/M06 A302 RMK A01 T00431057  RH  048%=      5-min Rain = 0
KPD1 171606Z 00002KT 04/M06 A302 RMK A01 T00431058  RH  048%=      5-min Rain = 0
KPD1 171607Z 01003KT 05/M06 A302 RMK A01 T00451056  RH  048%=      5-min Rain = 0
KPD1 171608Z 36004KT 05/M06 A302 RMK A01 T00461056  RH  047%=      5-min Rain = 0
KPD1 171609Z 03005KT 05/M06 A302 RMK A01 T00471057  RH  047%=      5-min Rain = 0
KPD1 171610Z 03006KT 05/M06 A302 RMK A01 T00461058  RH  047%=      5-min Rain = 0
KPD1 171611Z 02006KT 05/M06 A302 RMK A01 T00451058  RH  047%=      5-min Rain = 0
KPD1 171612Z 01005KT 05/M06 A302 RMK A01 T00451058  RH  047%=      5-min Rain = 0
KPD1 171613Z 02006KT 05/M06 A302 RMK A01 T00451057  RH  047%=      5-min Rain = 0
KPD1 171614Z 01005KT 05/M06 A302 RMK A01 T00461056  RH  047%=      5-min Rain = 0
KPD1 171615Z 00007KT 05/M06 A302 RMK A01 T00461057  RH  047%=      5-min Rain = 0
KPD1 171616Z 01006KT 05/M06 A302 RMK A01 T00461057  RH  047%=      5-min Rain = 0
KPD1 171617Z 02005KT 05/M06 A302 RMK A01 T00481055  RH  047%=      5-min Rain = 0
KPD1 171618Z 01006KT 05/M06 A302 RMK A01 T00491055  RH  047%=      5-min Rain = 0
KPD1 171619Z 36005KT 05/M06 A302 RMK A01 T00491056  RH  047%=      5-min Rain = 0
KPD1 171620Z 36004KT 05/M06 A302 RMK A01 T00501056  RH  046%=      5-min Rain = 0
KPD1 171621Z 01005KT 05/M06 A302 RMK A01 T00501055  RH  047%=      5-min Rain = 0
KPD1 171622Z 36005KT 05/M06 A302 RMK A01 T00511055  RH  046%=      5-min Rain = 0
KPD1 171623Z 00005KT 05/M06 A302 RMK A01 T00511055  RH  046%=      5-min Rain = 0
KPD1 171624Z 02005KT 05/M06 A3021 RMK A01 T00511056  RH  046%=      5-min Rain = 0
KPD1 171625Z 01004KT 05/M06 A3021 RMK A01 T00521057  RH  045%=      5-min Rain = 0
KPD1 171626Z 01004KT 05/M06 A3021 RMK A01 T00511057  RH  045%=      5-min Rain = 0
KPD1 171627Z 01006KT 05/M06 A3021 RMK A01 T00531055  RH  046%=      5-min Rain = 0
KPD1 171628Z 02007KT 05/M06 A3021 RMK A01 T00531055  RH  045%=      5-min Rain = 0
KPD1 171629Z 02006KT 05/M06 A3021 RMK A01 T00531056  RH  045%=      5-min Rain = 0
KPD1 171630Z 01007KT 05/M06 A3021 RMK A01 T00531057  RH  045%=      5-min Rain = 0
KPD1 171631Z 02007KT 05/M06 A3021 RMK A01 T00531057  RH  045%=      5-min Rain = 0
KPD1 171632Z 03006KT 05/M06 A3021 RMK A01 T00541057  RH  045%=      5-min Rain = 0
KPD1 171633Z 02007KT 06/M06 A3021 RMK A01 T00551056  RH  045%=      5-min Rain = 0
KPD1 171634Z 01007KT 06/M06 A3021 RMK A01 T00561058  RH  044%=      5-min Rain = 0
KPD1 171635Z 01009KT 06/M06 A3021 RMK A01 T00571059  RH  043%=      5-min Rain = 0
KPD1 171636Z 00006KT 06/M06 A3021 RMK A01 T00571062  RH  042%=      5-min Rain = 0
KPD1 171637Z 01006KT 06/M06 A3021 RMK A01 T00571061  RH  042%=      5-min Rain = 0
KPD1 171638Z 02008KT 06/M06 A3021 RMK A01 T00591059  RH  042%=      5-min Rain = 0
KPD1 171639Z 00010KT 06/M06 A3021 RMK A01 T00601063  RH  041%=      5-min Rain = 0
KPD1 171640Z 02008KT 06/M07 A3021 RMK A01 T00601065  RH  040%=      5-min Rain = 0
KPD1 171641Z 03007KT 06/M07 A3021 RMK A01 T00601066  RH  040%=      5-min Rain = 0
KPD1 171642Z 01009KT 06/M07 A3021 RMK A01 T00601066  RH  040%=      5-min Rain = 0
KPD1 171643Z 00008KT 06/M07 A3021 RMK A01 T00601067  RH  040%=      5-min Rain = 0
KPD1 171644Z 02006KT 06/M07 A3022 RMK A01 T00601067  RH  040%=      5-min Rain = 0
KPD1 171645Z 02006KT 06/M07 A3021 RMK A01 T00601068  RH  040%=      5-min Rain = 0
KPD1 171646Z 01007KT 06/M07 A3021 RMK A01 T00601067  RH  040%=      5-min Rain = 0
KPD1 171647Z 02007KT 06/M07 A3021 RMK A01 T00601067  RH  039%=      5-min Rain = 0
KPD1 171648Z 02005KT 06/M07 A3021 RMK A01 T00601068  RH  040%=      5-min Rain = 0
KPD1 171649Z 02008KT 06/M07 A3021 RMK A01 T00601065  RH  040%=      5-min Rain = 0
KPD1 171650Z 02006KT 06/M07 A3021 RMK A01 T00611066  RH  040%=      5-min Rain = 0
KPD1 171651Z 03007KT 06/M07 A3021 RMK A01 T00601065  RH  040%=      5-min Rain = 0
KPD1 171652Z 02007KT 06/M07 A3021 RMK A01 T00611066  RH  040%=      5-min Rain = 0
KPD1 171653Z 03005KT 06/M07 A3021 RMK A01 T00611068  RH  039%=      5-min Rain = 0
KPD1 171654Z 00006KT 06/M07 A3021 RMK A01 T00611068  RH  039%=      5-min Rain = 0
KPD1 171655Z 00007KT 06/M07 A3021 RMK A01 T00621066  RH  039%=      5-min Rain = 0
KPD1 171656Z 03005KT 06/M07 A3021 RMK A01 T00631065  RH  039%=      5-min Rain = 0
KPD1 171657Z 02005KT 06/M07 A3021 RMK A01 T00641068  RH  038%=      5-min Rain = 0
KPD1 171658Z 02005KT 06/M07 A3021 RMK A01 T00641066  RH  039%=      5-min Rain = 0
KPD1 171659Z 04004KT 07/M07 A3021 RMK A01 T00661065  RH  039%=      5-min Rain = 0
KPD1 171700Z 03005KT 07/M07 A3021 RMK A01 T00681067  RH  038%=      5-min Rain = 0
KPD1 171701Z 02006KT 07/M07 A3021 RMK A01 T00681067  RH  038%=      5-min Rain = 0
KPD1 171702Z 01007KT 07/M07 A3021 RMK A01 T00681066  RH  038%=      5-min Rain = 0
KPD1 171703Z 02004KT 07/M07 A3021 RMK A01 T00681067  RH  037%=      5-min Rain = 0
KPD1 171704Z 01003KT 07/M07 A3021 RMK A01 T00691068  RH  037%=      5-min Rain = 0
KPD1 171705Z 36005KT 07/M07 A3021 RMK A01 T00711068  RH  037%=      5-min Rain = 0
KPD1 171706Z 01006KT 07/M07 A3021 RMK A01 T00711069  RH  036%=      5-min Rain = 0
KPD1 171707Z 01006KT 07/M07 A3022 RMK A01 T00721070  RH  036%=      5-min Rain = 0
KPD1 171708Z 02008KT 07/M07 A3021 RMK A01 T00741069  RH  035%=      5-min Rain = 0
KPD1 171709Z 01007KT 07/M07 A3021 RMK A01 T00721072  RH  035%=      5-min Rain = 0
KPD1 171710Z 02008KT 07/M07 A3021 RMK A01 T00711073  RH  035%=      5-min Rain = 0
KPD1 171711Z 01005KT 07/M08 A3021 RMK A01 T00701078  RH  034%=      5-min Rain = 0
KPD1 171712Z 04006KT 07/M08 A3021 RMK A01 T00681078  RH  034%=      5-min Rain = 0
KPD1 171713Z 04005KT 07/M08 A3021 RMK A01 T00681079  RH  034%=      5-min Rain = 0
KPD1 171714Z 03008KT 07/M08 A3021 RMK A01 T00681078  RH  034%=      5-min Rain = 0
KPD1 171715Z 04008KT 07/M08 A3021 RMK A01 T00701079  RH  034%=      5-min Rain = 0
KPD1 171716Z 04005KT 07/M08 A3021 RMK A01 T00701081  RH  033%=      5-min Rain = 0
KPD1 171717Z 04008KT 07/M08 A3021 RMK A01 T00701081  RH  033%=      5-min Rain = 0
KPD1 171718Z 03005KT 07/M08 A302 RMK A01 T00701078  RH  034%=      5-min Rain = 0
KPD1 171719Z 04003KT 07/M08 A302 RMK A01 T00701077  RH  034%=      5-min Rain = 0
KPD1 171720Z 03006KT 07/M08 A302 RMK A01 T00701078  RH  034%=      5-min Rain = 0
KPD1 171721Z 04005KT 07/M08 A302 RMK A01 T00711079  RH  033%=      5-min Rain = 0
KPD1 171722Z 04007KT 07/M08 A302 RMK A01 T00741078  RH  033%=      5-min Rain = 0
KPD1 171723Z 04006KT 08/M08 A302 RMK A01 T00751080  RH  033%=      5-min Rain = 0
KPD1 171724Z 05008KT 07/M08 A302 RMK A01 T00741081  RH  032%=      5-min Rain = 0
KPD1 171725Z 04005KT 07/M08 A302 RMK A01 T00741083  RH  032%=      5-min Rain = 0
KPD1 171726Z 00007KT 08/M08 A302 RMK A01 T00751081  RH  032%=      5-min Rain = 0
KPD1 171727Z 01007KT 08/M08 A302 RMK A01 T00771077  RH  032%=      5-min Rain = 0
KPD1 171728Z 01007KT 08/M08 A302 RMK A01 T00781080  RH  032%=      5-min Rain = 0
KPD1 171729Z 02009KT 08/M08 A302 RMK A01 T00781081  RH  031%=      5-min Rain = 0
KPD1 171730Z 02006KT 08/M09 A302 RMK A01 T00751085  RH  031%=      5-min Rain = 0
KPD1 171731Z 03007KT 07/M08 A302 RMK A01 T00731083  RH  032%=      5-min Rain = 0
KPD1 171732Z 04007KT 07/M08 A302 RMK A01 T00731082  RH  032%=      5-min Rain = 0
KPD1 171733Z 03006KT 07/M08 A302 RMK A01 T00741080  RH  033%=      5-min Rain = 0
KPD1 171734Z 04007KT 07/M08 A302 RMK A01 T00741081  RH  032%=      5-min Rain = 0
KPD1 171735Z 03006KT 07/M08 A302 RMK A01 T00741081  RH  032%=      5-min Rain = 0
KPD1 171736Z 06002KT 07/M08 A3019 RMK A01 T00731082  RH  032%=      5-min Rain = 0
KPD1 171737Z 35005KT 07/M08 A3019 RMK A01 T00731080  RH  033%=      5-min Rain = 0
KPD1 171738Z 01003KT 08/M08 A3019 RMK A01 T00761079  RH  033%=      5-min Rain = 0
KPD1 171739Z 35002KT 08/M08 A3019 RMK A01 T00761081  RH  032%=      5-min Rain = 0
KPD1 171740Z 02004KT 08/M08 A3019 RMK A01 T00771078  RH  032%=      5-min Rain = 0
KPD1 171741Z 02003KT 08/M08 A3019 RMK A01 T00771079  RH  032%=      5-min Rain = 0
KPD1 171742Z 02004KT 08/M08 A3019 RMK A01 T00771080  RH  032%=      5-min Rain = 0
KPD1 171743Z 02007KT 08/M08 A3019 RMK A01 T00781082  RH  031%=      5-min Rain = 0
KPD1 171744Z 01007KT 08/M08 A3019 RMK A01 T00811084  RH  030%=      5-min Rain = 0
KPD1 171745Z 00007KT 08/M09 A3019 RMK A01 T00811085  RH  030%=      5-min Rain = 0
KPD1 171746Z 00007KT 08/M09 A3018 RMK A01 T00791086  RH  030%=      5-min Rain = 0
KPD1 171747Z 01005KT 08/M08 A3018 RMK A01 T00791083  RH  031%=      5-min Rain = 0
KPD1 171748Z 35003KT 08/M08 A3018 RMK A01 T00811083  RH  031%=      5-min Rain = 0
KPD1 171749Z 04004KT 08/M08 A3018 RMK A01 T00801084  RH  030%=      5-min Rain = 0
KPD1 171750Z 05005KT 08/M08 A3018 RMK A01 T00801083  RH  031%=      5-min Rain = 0
KPD1 171751Z 06005KT 08/M08 A3018 RMK A01 T00801083  RH  031%=      5-min Rain = 0
KPD1 171752Z 05005KT 08/M08 A3018 RMK A01 T00801083  RH  031%=      5-min Rain = 0
KPD1 171753Z 05004KT 08/M08 A3018 RMK A01 T00801083  RH  031%=      5-min Rain = 0
KPD1 171754Z 02003KT 08/M08 A3018 RMK A01 T00801084  RH  030%=      5-min Rain = 0
KPD1 171755Z 02004KT 08/M09 A3018 RMK A01 T00791086  RH  030%=      5-min Rain = 0
KPD1 171756Z 03004KT 08/M09 A3018 RMK A01 T00771086  RH  030%=      5-min Rain = 0
KPD1 171757Z 02004KT 08/M08 A3018 RMK A01 T00771083  RH  031%=      5-min Rain = 0
KPD1 171758Z 35006KT 08/M08 A3018 RMK A01 T00791081  RH  031%=      5-min Rain = 0
KPD1 171759Z 35006KT 08/M08 A3018 RMK A01 T00801081  RH  031%=      5-min Rain = 0
KPD1 171800Z 34004KT 08/M08 A3018 RMK A01 T00811081  RH  031%=      5-min Rain = 0
KPD1 171801Z 33003KT 08/M08 A3018 RMK A01 T00811083  RH  030%=      5-min Rain = 0
KPD1 171802Z 02001KT 08/M08 A3017 RMK A01 T00801084  RH  030%=      5-min Rain = 0
KPD1 171803Z 00004KT 08/M08 A3017 RMK A01 T00811081  RH  031%=      5-min Rain = 0
KPD1 171804Z 00004KT 08/M08 A3017 RMK A01 T00831081  RH  031%=      5-min Rain = 0
KPD1 171805Z 03003KT 08/M08 A3017 RMK A01 T00831083  RH  030%=      5-min Rain = 0
KPD1 171806Z 36002KT 08/M08 A3017 RMK A01 T00831082  RH  030%=      5-min Rain = 0
KPD1 171807Z 35005KT 09/M08 A3017 RMK A01 T00861078  RH  030%=      5-min Rain = 0
KPD1 171808Z 35005KT 09/M08 A3017 RMK A01 T00871080  RH  030%=      5-min Rain = 0
KPD1 171809Z 00005KT 09/M08 A3017 RMK A01 T00871082  RH  029%=      5-min Rain = 0
KPD1 171810Z 36004KT 09/M08 A3017 RMK A01 T00871082  RH  029%=      5-min Rain = 0
KPD1 171811Z 02003KT 09/M08 A3016 RMK A01 T00871084  RH  029%=      5-min Rain = 0
KPD1 171812Z 01007KT 09/M09 A3016 RMK A01 T00861085  RH  029%=      5-min Rain = 0
KPD1 171813Z 34005KT 09/M08 A3016 RMK A01 T00861083  RH  029%=      5-min Rain = 0
KPD1 171814Z 33004KT 09/M08 A3016 RMK A01 T00861084  RH  029%=      5-min Rain = 0
KPD1 171815Z 05003KT 09/M08 A3016 RMK A01 T00861084  RH  029%=      5-min Rain = 0
KPD1 171816Z 05003KT 09/M08 A3016 RMK A01 T00871082  RH  029%=      5-min Rain = 0
KPD1 171817Z 07004KT 09/M08 A3016 RMK A01 T00881082  RH  029%=      5-min Rain = 0
KPD1 171818Z 04002KT 09/M08 A3016 RMK A01 T00891080  RH  029%=      5-min Rain = 0
KPD1 171819Z 36004KT 09/M08 A3016 RMK A01 T00901080  RH  029%=      5-min Rain = 0
KPD1 171820Z 34003KT 09/M08 A3016 RMK A01 T00921079  RH  029%=      5-min Rain = 0
KPD1 171821Z 32005KT 09/M08 A3016 RMK A01 T00921079  RH  029%=      5-min Rain = 0
KPD1 171822Z 34008KT 09/M08 A3016 RMK A01 T00891081  RH  029%=      5-min Rain = 0
KPD1 171823Z 35007KT 09/M08 A3016 RMK A01 T00881082  RH  029%=      5-min Rain = 0
KPD1 171824Z 35006KT 09/M08 A3016 RMK A01 T00881082  RH  029%=      5-min Rain = 0
KPD1 171825Z 00006KT 09/M08 A3016 RMK A01 T00871083  RH  029%=      5-min Rain = 0
KPD1 171826Z 01006KT 09/M08 A3016 RMK A01 T00871084  RH  029%=      5-min Rain = 0
KPD1 171827Z 34002KT 09/M09 A3016 RMK A01 T00851087  RH  029%=      5-min Rain = 0
KPD1 171828Z 36004KT 09/M09 A3016 RMK A01 T00851086  RH  029%=      5-min Rain = 0
KPD1 171829Z 05004KT 09/M08 A3016 RMK A01 T00861083  RH  029%=      5-min Rain = 0
KPD1 171830Z 35003KT 09/M08 A3015 RMK A01 T00881083  RH  029%=      5-min Rain = 0
KPD1 171831Z 35004KT 09/M08 A3015 RMK A01 T00891082  RH  029%=      5-min Rain = 0
KPD1 171832Z 35003KT 09/M08 A3015 RMK A01 T00901081  RH  029%=      5-min Rain = 0
KPD1 171833Z 02004KT 09/M08 A3015 RMK A01 T00901083  RH  028%=      5-min Rain = 0
KPD1 171834Z 04005KT 09/M09 A3015 RMK A01 T00901087  RH  028%=      5-min Rain = 0
KPD1 171835Z 05007KT 09/M09 A3015 RMK A01 T00881090  RH  027%=      5-min Rain = 0
KPD1 171836Z 06007G12KT 09/M09 A3015 RMK A01 T00861089  RH  028%=      5-min Rain = 0
KPD1 171837Z 05008KT 09/M09 A3015 RMK A01 T00871088  RH  028%=      5-min Rain = 0
KPD1 171838Z 03007KT 09/M09 A3015 RMK A01 T00881086  RH  028%=      5-min Rain = 0
KPD1 171839Z 03007KT 09/M09 A3015 RMK A01 T00901085  RH  028%=      5-min Rain = 0
KPD1 171840Z 02006KT 09/M08 A3015 RMK A01 T00921083  RH  028%=      5-min Rain = 0
KPD1 171841Z 05007KT 09/M09 A3014 RMK A01 T00921087  RH  027%=      5-min Rain = 0
KPD1 171842Z 03008KT 09/M09 A3014 RMK A01 T00911087  RH  028%=      5-min Rain = 0
KPD1 171843Z 03006KT 09/M09 A3015 RMK A01 T00881088  RH  028%=      5-min Rain = 0
KPD1 171844Z 04005KT 09/M09 A3014 RMK A01 T00861088  RH  028%=      5-min Rain = 0
KPD1 171845Z 04006KT 09/M09 A3014 RMK A01 T00861086  RH  029%=      5-min Rain = 0
KPD1 171846Z 06005KT 09/M09 A3014 RMK A01 T00881085  RH  029%=      5-min Rain = 0
KPD1 171847Z 04008KT 09/M08 A3014 RMK A01 T00891084  RH  028%=      5-min Rain = 0
KPD1 171848Z 03005KT 09/M08 A3014 RMK A01 T00911084  RH  028%=      5-min Rain = 0
KPD1 171849Z 01003KT 09/M09 A3014 RMK A01 T00911086  RH  028%=      5-min Rain = 0
KPD1 171850Z 04004KT 09/M08 A3014 RMK A01 T00911084  RH  028%=      5-min Rain = 0
KPD1 171851Z 05005KT 09/M08 A3014 RMK A01 T00941082  RH  028%=      5-min Rain = 0
KPD1 171852Z 02008KT 09/M09 A3014 RMK A01 T00941085  RH  027%=      5-min Rain = 0
KPD1 171853Z 02007KT 09/M09 A3014 RMK A01 T00911088  RH  027%=      5-min Rain = 0
KPD1 171854Z 02006KT 09/M09 A3014 RMK A01 T00881090  RH  027%=      5-min Rain = 0
KPD1 171855Z 01005KT 09/M09 A3014 RMK A01 T00851091  RH  028%=      5-min Rain = 0
KPD1 171856Z 00005KT 09/M09 A3014 RMK A01 T00861088  RH  028%=      5-min Rain = 0
KPD1 171857Z 36004KT 09/M09 A3014 RMK A01 T00891085  RH  028%=      5-min Rain = 0
KPD1 171858Z 02006KT 09/M09 A3014 RMK A01 T00911086  RH  028%=      5-min Rain = 0
KPD1 171859Z 01008KT 09/M09 A3014 RMK A01 T00911087  RH  027%=      5-min Rain = 0
KPD1 171900Z 01007KT 09/M09 A3014 RMK A01 T00911087  RH  028%=      5-min Rain = 0
KPD1 171901Z 03007KT 09/M09 A3014 RMK A01 T00921087  RH  027%=      5-min Rain = 0
KPD1 171902Z 02004KT 09/M09 A3014 RMK A01 T00891091  RH  027%=      5-min Rain = 0
KPD1 171903Z 02007KT 09/M09 A3014 RMK A01 T00891088  RH  028%=      5-min Rain = 0
KPD1 171904Z 02007KT 09/M09 A3014 RMK A01 T00901089  RH  027%=      5-min Rain = 0
KPD1 171905Z 01006KT 09/M09 A3014 RMK A01 T00901089  RH  027%=      5-min Rain = 0
KPD1 171906Z 01007KT 09/M09 A3014 RMK A01 T00901086  RH  028%=      5-min Rain = 0
KPD1 171907Z 02006KT 09/M09 A3014 RMK A01 T00931085  RH  027%=      5-min Rain = 0
KPD1 171908Z 01005KT 09/M09 A3014 RMK A01 T00941087  RH  027%=      5-min Rain = 0
KPD1 171909Z 00004KT 09/M09 A3014 RMK A01 T00941087  RH  027%=      5-min Rain = 0
KPD1 171910Z 35003KT 09/M09 A3014 RMK A01 T00941088  RH  027%=      5-min Rain = 0
KPD1 171911Z 00009KT 09/M09 A3013 RMK A01 T00931090  RH  027%=      5-min Rain = 0
KPD1 171912Z 04009KT 09/M09 A3013 RMK A01 T00941087  RH  027%=      5-min Rain = 0
KPD1 171913Z 03006KT 09/M09 A3013 RMK A01 T00941087  RH  027%=      5-min Rain = 0
KPD1 171914Z 05007KT 10/M09 A3013 RMK A01 T00951087  RH  027%=      5-min Rain = 0
KPD1 171915Z 05006KT 09/M09 A3013 RMK A01 T00941088  RH  027%=      5-min Rain = 0
KPD1 171916Z 05004KT 09/M09 A3013 RMK A01 T00941088  RH  027%=      5-min Rain = 0
KPD1 171917Z 06002KT 09/M09 A3013 RMK A01 T00931090  RH  027%=      5-min Rain = 0
KPD1 171918Z 35006KT 09/M09 A3013 RMK A01 T00931087  RH  027%=      5-min Rain = 0
KPD1 171919Z 35007KT 10/M09 A3013 RMK A01 T00961086  RH  027%=      5-min Rain = 0
KPD1 171920Z 03009KT 10/M09 A3013 RMK A01 T00981086  RH  026%=      5-min Rain = 0
KPD1 171921Z 01008KT 10/M09 A3013 RMK A01 T00971089  RH  026%=      5-min Rain = 0
KPD1 171922Z 34005KT 09/M09 A3013 RMK A01 T00941092  RH  026%=      5-min Rain = 0
KPD1 171923Z 05006KT 09/M09 A3013 RMK A01 T00921092  RH  026%=      5-min Rain = 0
KPD1 171924Z 06004KT 09/M09 A3013 RMK A01 T00921092  RH  026%=      5-min Rain = 0
KPD1 171925Z 09002KT 09/M09 A3013 RMK A01 T00921091  RH  026%=      5-min Rain = 0
KPD1 171926Z 08002KT 09/M09 A3013 RMK A01 T00931090  RH  027%=      5-min Rain = 0
KPD1 171927Z 05001KT 09/M09 A3013 RMK A01 T00941089  RH  026%=      5-min Rain = 0
KPD1 171928Z 01003KT 10/M09 A3013 RMK A01 T00961088  RH  026%=      5-min Rain = 0
KPD1 171929Z 35005KT 10/M09 A3013 RMK A01 T00981086  RH  026%=      5-min Rain = 0
KPD1 171930Z 35005KT 10/M09 A3013 RMK A01 T00991087  RH  026%=      5-min Rain = 0
KPD1 171931Z 31004KT 10/M09 A3013 RMK A01 T00971087  RH  026%=      5-min Rain = 0
KPD1 171932Z 30004KT 10/M09 A3013 RMK A01 T00961089  RH  026%=      5-min Rain = 0
KPD1 171933Z 31004KT 09/M09 A3013 RMK A01 T00941091  RH  026%=      5-min Rain = 0
KPD1 171934Z 33004KT 09/M09 A3013 RMK A01 T00941090  RH  026%=      5-min Rain = 0
KPD1 171935Z 33002KT 09/M09 A3013 RMK A01 T00931092  RH  026%=      5-min Rain = 0
KPD1 171936Z 31002KT 09/M09 A3013 RMK A01 T00921091  RH  026%=      5-min Rain = 0
KPD1 171937Z 00004KT 09/M09 A3013 RMK A01 T00931089  RH  027%=      5-min Rain = 0
KPD1 171938Z 31004KT 09/M09 A3013 RMK A01 T00941089  RH  027%=      5-min Rain = 0
KPD1 171939Z 34008G14KT 10/M09 A3013 RMK A01 T00951088  RH  027%=      5-min Rain = 0
KPD1 171940Z 34007KT 10/M09 A3013 RMK A01 T00971087  RH  026%=      5-min Rain = 0
KPD1 171941Z 32007KT 10/M09 A3013 RMK A01 T00981087  RH  026%=      5-min Rain = 0
KPD1 171942Z 33005KT 10/M09 A3013 RMK A01 T00991086  RH  026%=      5-min Rain = 0
KPD1 171943Z 31005KT 10/M09 A3013 RMK A01 T00981089  RH  026%=      5-min Rain = 0
KPD1 171944Z 32001KT 10/M09 A3012 RMK A01 T00961090  RH  026%=      5-min Rain = 0
KPD1 171945Z 29001KT 10/M09 A3012 RMK A01 T00961089  RH  026%=      5-min Rain = 0
KPD1 171946Z 31003KT 10/M09 A3012 RMK A01 T00971086  RH  026%=      5-min Rain = 0
KPD1 171947Z 33003KT 10/M09 A3012 RMK A01 T00981086  RH  026%=      5-min Rain = 0
KPD1 171948Z 33004KT 10/M09 A3012 RMK A01 T00991087  RH  026%=      5-min Rain = 0
KPD1 171949Z 34001KT 10/M09 A3012 RMK A01 T00981089  RH  026%=      5-min Rain = 0
KPD1 171950Z 00003KT 10/M09 A3012 RMK A01 T00981090  RH  026%=      5-min Rain = 0
KPD1 171951Z 34003KT 10/M09 A3012 RMK A01 T00981089  RH  026%=      5-min Rain = 0
KPD1 171952Z 36004KT 10/M09 A3012 RMK A01 T00991088  RH  026%=      5-min Rain = 0
KPD1 171953Z 03003KT 10/M09 A3012 RMK A01 T00991089  RH  026%=      5-min Rain = 0
KPD1 171954Z 34002KT 10/M09 A3012 RMK A01 T00961091  RH  026%=      5-min Rain = 0
KPD1 171955Z 03002KT 10/M09 A3012 RMK A01 T00971088  RH  026%=      5-min Rain = 0
KPD1 171956Z 05001KT 10/M09 A3012 RMK A01 T00971089  RH  026%=      5-min Rain = 0
KPD1 171957Z 00002KT 10/M09 A3012 RMK A01 T00981087  RH  026%=      5-min Rain = 0
KPD1 171958Z 36001KT 10/M09 A3012 RMK A01 T00991088  RH  026%=      5-min Rain = 0
KPD1 171959Z 35001KT 10/M09 A3011 RMK A01 T00991090  RH  026%=      5-min Rain = 0
KPD1 172000Z 01005KT 10/M09 A3011 RMK A01 T00971090  RH  026%=      5-min Rain = 0
KPD1 172001Z 01004KT 10/M09 A3011 RMK A01 T00991086  RH  026%=      5-min Rain = 0
KPD1 172002Z 01003KT 10/M09 A3011 RMK A01 T00991088  RH  026%=      5-min Rain = 0
KPD1 172003Z 36004KT 10/M09 A3011 RMK A01 T00991086  RH  026%=      5-min Rain = 0
KPD1 172004Z 36005KT 10/M09 A3011 RMK A01 T01001086  RH  026%=      5-min Rain = 0
KPD1 172005Z 01005KT 10/M09 A3011 RMK A01 T01001088  RH  026%=      5-min Rain = 0
KPD1 172006Z 35002KT 10/M09 A3011 RMK A01 T00991087  RH  026%=      5-min Rain = 0
KPD1 172007Z 34005KT 10/M09 A3011 RMK A01 T00991087  RH  026%=      5-min Rain = 0
KPD1 172008Z 33003KT 10/M09 A3011 RMK A01 T00991089  RH  026%=      5-min Rain = 0
KPD1 172009Z 32003KT 10/M09 A3011 RMK A01 T00971091  RH  026%=      5-min Rain = 0
KPD1 172010Z 03004KT 09/M09 A3011 RMK A01 T00941092  RH  026%=      5-min Rain = 0
KPD1 172011Z 05004KT 09/M09 A3011 RMK A01 T00931091  RH  026%=      5-min Rain = 0
KPD1 172012Z 07002KT 09/M09 A3011 RMK A01 T00931090  RH  026%=      5-min Rain = 0
KPD1 172013Z 08002KT 09/M09 A3011 RMK A01 T00941088  RH  027%=      5-min Rain = 0
KPD1 172014Z 26000KT 10/M09 A3011 RMK A01 T00961088  RH  026%=      5-min Rain = 0
KPD1 172015Z 30006G12KT 10/M09 A3011 RMK A01 T00991086  RH  026%=      5-min Rain = 0
KPD1 172016Z 34004KT 10/M09 A3011 RMK A01 T01011086  RH  026%=      5-min Rain = 0
KPD1 172017Z 30006KT 10/M09 A3011 RMK A01 T01011087  RH  026%=      5-min Rain = 0
KPD1 172018Z 31005KT 10/M09 A3011 RMK A01 T01001088  RH  026%=      5-min Rain = 0
KPD1 172019Z 33005KT 10/M09 A3011 RMK A01 T00991089  RH  026%=      5-min Rain = 0
KPD1 172020Z 00002KT 10/M09 A3011 RMK A01 T00971090  RH  026%=      5-min Rain = 0
KPD1 172021Z 32003G8KT 10/M09 A3011 RMK A01 T00971089  RH  026%=      5-min Rain = 0
KPD1 172022Z 33006KT 10/M09 A3011 RMK A01 T00971089  RH  026%=      5-min Rain = 0
KPD1 172023Z 31004KT 10/M09 A3011 RMK A01 T00961090  RH  026%=      5-min Rain = 0
KPD1 172024Z 28005KT 10/M09 A3011 RMK A01 T00971088  RH  026%=      5-min Rain = 0
KPD1 172025Z 26004KT 10/M09 A3011 RMK A01 T00991086  RH  026%=      5-min Rain = 0
KPD1 172026Z 24003KT 10/M09 A3011 RMK A01 T01011086  RH  026%=      5-min Rain = 0
KPD1 172027Z 24003KT 10/M09 A3011 RMK A01 T01031086  RH  026%=      5-min Rain = 0
KPD1 172028Z 25005KT 11/M08 A3011 RMK A01 T01061084  RH  025%=      5-min Rain = 0
KPD1 172029Z 24007KT 11/M09 A3011 RMK A01 T01051088  RH  025%=      5-min Rain = 0
KPD1 172030Z 24006KT 10/M09 A3011 RMK A01 T01031089  RH  025%=      5-min Rain = 0
KPD1 172031Z 24003KT 10/M09 A3011 RMK A01 T01011090  RH  025%=      5-min Rain = 0
KPD1 172032Z 15000KT 10/M09 A3011 RMK A01 T01001089  RH  025%=      5-min Rain = 0
KPD1 172033Z 15000KT 10/M09 A3011 RMK A01 T01011088  RH  026%=      5-min Rain = 0
KPD1 172034Z 05001KT 10/M09 A3011 RMK A01 T01011089  RH  025%=      5-min Rain = 0
KPD1 172035Z 05001KT 10/M09 A3011 RMK A01 T01001090  RH  025%=      5-min Rain = 0
KPD1 172036Z 00000KT 10/M09 A3011 RMK A01 T00991089  RH  026%=      5-min Rain = 0
KPD1 172037Z 23002KT 10/M09 A3011 RMK A01 T00991089  RH  026%=      5-min Rain = 0
KPD1 172038Z 24002KT 10/M09 A3011 RMK A01 T01011087  RH  026%=      5-min Rain = 0
KPD1 172039Z 28003KT 10/M09 A3011 RMK A01 T01031087  RH  025%=      5-min Rain = 0
KPD1 172040Z 29006KT 10/M09 A3011 RMK A01 T01031087  RH  025%=      5-min Rain = 0
KPD1 172041Z 30004KT 10/M09 A3011 RMK A01 T01041087  RH  025%=      5-min Rain = 0
KPD1 172042Z 30003KT 10/M09 A3011 RMK A01 T01031088  RH  025%=      5-min Rain = 0
KPD1 172043Z 32002KT 10/M09 A3011 RMK A01 T01011090  RH  025%=      5-min Rain = 0
KPD1 172044Z 29001KT 10/M09 A3011 RMK A01 T00991090  RH  025%=      5-min Rain = 0
KPD1 172045Z 27002KT 10/M09 A3011 RMK A01 T00991088  RH  026%=      5-min Rain = 0
KPD1 172046Z 26000KT 10/M09 A3011 RMK A01 T01001088  RH  026%=      5-min Rain = 0
KPD1 172047Z 23001KT 10/M09 A3011 RMK A01 T01001087  RH  026%=      5-min Rain = 0
KPD1 172048Z 21002KT 10/M09 A3011 RMK A01 T01011088  RH  025%=      5-min Rain = 0
KPD1 172049Z 20002KT 10/M09 A3011 RMK A01 T01011089  RH  025%=      5-min Rain = 0
KPD1 172050Z 21003KT 10/M09 A3011 RMK A01 T01021088  RH  025%=      5-min Rain = 0
KPD1 172051Z 25003KT 10/M09 A3011 RMK A01 T01031087  RH  025%=      5-min Rain = 0
KPD1 172052Z 28003KT 10/M09 A3011 RMK A01 T01031088  RH  025%=      5-min Rain = 0
KPD1 172053Z 34001KT 10/M09 A3011 RMK A01 T01021090  RH  025%=      5-min Rain = 0
KPD1 172054Z 34000KT 10/M09 A3011 RMK A01 T00991091  RH  025%=      5-min Rain = 0
KPD1 172055Z 30000KT 10/M09 A3011 RMK A01 T00981090  RH  026%=      5-min Rain = 0
KPD1 172056Z 29004KT 10/M09 A3011 RMK A01 T01001087  RH  026%=      5-min Rain = 0
KPD1 172057Z 31003KT 10/M09 A3011 RMK A01 T01021087  RH  026%=      5-min Rain = 0
KPD1 172058Z 30004KT 10/M09 A3011 RMK A01 T01031086  RH  026%=      5-min Rain = 0
KPD1 172059Z 31003KT 11/M09 A3011 RMK A01 T01051085  RH  025%=      5-min Rain = 0
KPD1 172100Z 31002KT 11/M09 A3011 RMK A01 T01051086  RH  025%=      5-min Rain = 0
KPD1 172101Z 30001KT 11/M09 A3011 RMK A01 T01061085  RH  025%=      5-min Rain = 0
KPD1 172102Z 26001KT 11/M09 A301 RMK A01 T01071086  RH  025%=      5-min Rain = 0
KPD1 172103Z 29002KT 11/M09 A301 RMK A01 T01061087  RH  025%=      5-min Rain = 0
KPD1 172104Z 30004KT 11/M09 A301 RMK A01 T01071087  RH  025%=      5-min Rain = 0
KPD1 172105Z 32003KT 10/M09 A301 RMK A01 T01041089  RH  025%=      5-min Rain = 0
KPD1 172106Z 30001KT 10/M09 A301 RMK A01 T01011091  RH  025%=      5-min Rain = 0
KPD1 172107Z 24000KT 10/M09 A301 RMK A01 T01001088  RH  026%=      5-min Rain = 0
KPD1 172108Z 05000KT 10/M09 A301 RMK A01 T01041085  RH  026%=      5-min Rain = 0
KPD1 172109Z 07002KT 11/M09 A301 RMK A01 T01061085  RH  025%=      5-min Rain = 0
KPD1 172110Z 04002KT 11/M09 A301 RMK A01 T01051086  RH  025%=      5-min Rain = 0
KPD1 172111Z 05003KT 11/M09 A301 RMK A01 T01061087  RH  025%=      5-min Rain = 0
KPD1 172112Z 06002KT 10/M09 A301 RMK A01 T01041089  RH  025%=      5-min Rain = 0
KPD1 172113Z 05003KT 10/M09 A301 RMK A01 T01021090  RH  025%=      5-min Rain = 0
KPD1 172114Z 34003KT 10/M09 A301 RMK A01 T01021087  RH  026%=      5-min Rain = 0
KPD1 172115Z 29002KT 10/M09 A301 RMK A01 T01031087  RH  025%=      5-min Rain = 0
KPD1 172116Z 02002KT 10/M09 A301 RMK A01 T01041087  RH  025%=      5-min Rain = 0
KPD1 172117Z 03002KT 11/M09 A301 RMK A01 T01051088  RH  025%=      5-min Rain = 0
KPD1 172118Z 02002KT 10/M09 A301 RMK A01 T01041089  RH  025%=      5-min Rain = 0
KPD1 172119Z 35001KT 10/M09 A301 RMK A01 T01031089  RH  025%=      5-min Rain = 0
KPD1 172120Z 36003KT 10/M09 A301 RMK A01 T01031085  RH  026%=      5-min Rain = 0
KPD1 172121Z 34003KT 10/M09 A301 RMK A01 T01041087  RH  025%=      5-min Rain = 0
KPD1 172122Z 35004KT 10/M09 A301 RMK A01 T01041087  RH  025%=      5-min Rain = 0
KPD1 172123Z 34005KT 10/M09 A301 RMK A01 T01041088  RH  025%=      5-min Rain = 0
KPD1 172124Z 33005KT 10/M09 A301 RMK A01 T01031087  RH  025%=      5-min Rain = 0
KPD1 172125Z 32004KT 10/M09 A301 RMK A01 T01031088  RH  025%=      5-min Rain = 0
KPD1 172126Z 34004KT 10/M09 A301 RMK A01 T01041088  RH  025%=      5-min Rain = 0
KPD1 172127Z 32003KT 10/M09 A301 RMK A01 T01041088  RH  025%=      5-min Rain = 0
KPD1 172128Z 30005KT 10/M09 A301 RMK A01 T01031088  RH  025%=      5-min Rain = 0
KPD1 172129Z 29004KT 10/M09 A301 RMK A01 T01031088  RH  025%=      5-min Rain = 0
KPD1 172130Z 28004KT 10/M09 A301 RMK A01 T01041087  RH  025%=      5-min Rain = 0
KPD1 172131Z 28003KT 10/M09 A301 RMK A01 T01041088  RH  025%=      5-min Rain = 0
KPD1 172132Z 31002KT 10/M09 A301 RMK A01 T01031089  RH  025%=      5-min Rain = 0
KPD1 172133Z 32004KT 10/M09 A301 RMK A01 T01031089  RH  025%=      5-min Rain = 0
KPD1 172134Z 32005KT 10/M09 A301 RMK A01 T01041088  RH  025%=      5-min Rain = 0
KPD1 172135Z 32004KT 10/M09 A3009 RMK A01 T01031088  RH  025%=      5-min Rain = 0
KPD1 172136Z 32003KT 10/M09 A3009 RMK A01 T01031089  RH  025%=      5-min Rain = 0
KPD1 172137Z 28004KT 10/M09 A3009 RMK A01 T01021089  RH  025%=      5-min Rain = 0
KPD1 172138Z 27005KT 11/M09 A3009 RMK A01 T01051086  RH  025%=      5-min Rain = 0
KPD1 172139Z 30004KT 11/M09 A3009 RMK A01 T01051088  RH  025%=      5-min Rain = 0
KPD1 172140Z 31004KT 10/M09 A3009 RMK A01 T01031091  RH  025%=      5-min Rain = 0
KPD1 172141Z 28004KT 10/M09 A3009 RMK A01 T01011090  RH  025%=      5-min Rain = 0
KPD1 172142Z 27003KT 10/M09 A3009 RMK A01 T01011089  RH  025%=      5-min Rain = 0
KPD1 172143Z 27003KT 10/M09 A3009 RMK A01 T01021089  RH  025%=      5-min Rain = 0
KPD1 172144Z 28001KT 10/M09 A3009 RMK A01 T01031089  RH  025%=      5-min Rain = 0
KPD1 172145Z 13000KT 10/M09 A3009 RMK A01 T01031089  RH  025%=      5-min Rain = 0
KPD1 172146Z 12002KT 10/M09 A3009 RMK A01 T01041088  RH  025%=      5-min Rain = 0
KPD1 172147Z 10001KT 11/M09 A3009 RMK A01 T01051088  RH  025%=      5-min Rain = 0
KPD1 172148Z 05001KT 11/M09 A3009 RMK A01 T01051088  RH  025%=      5-min Rain = 0
KPD1 172149Z 04001KT 11/M09 A3009 RMK A01 T01061088  RH  025%=      5-min Rain = 0
KPD1 172150Z 36001KT 11/M09 A3009 RMK A01 T01051089  RH  025%=      5-min Rain = 0
KPD1 172151Z 03001KT 10/M09 A3009 RMK A01 T01041088  RH  025%=      5-min Rain = 0
KPD1 172152Z 02002KT 10/M09 A3009 RMK A01 T01041089  RH  025%=      5-min Rain = 0
KPD1 172153Z 03002KT 10/M09 A3009 RMK A01 T01021091  RH  025%=      5-min Rain = 0
KPD1 172154Z 35003KT 10/M09 A3009 RMK A01 T01021089  RH  025%=      5-min Rain = 0
KPD1 172155Z 31003KT 10/M09 A3009 RMK A01 T01031088  RH  025%=      5-min Rain = 0
KPD1 172156Z 31005KT 10/M09 A3009 RMK A01 T01031089  RH  025%=      5-min Rain = 0
KPD1 172157Z 31004KT 10/M09 A3009 RMK A01 T01041088  RH  025%=      5-min Rain = 0
KPD1 172158Z 32003KT 10/M09 A3009 RMK A01 T01031090  RH  025%=      5-min Rain = 0
KPD1 172159Z 28004KT 10/M09 A3009 RMK A01 T01031089  RH  025%=      5-min Rain = 0
KPD1 172200Z 31004KT 10/M09 A3009 RMK A01 T01041088  RH  025%=      5-min Rain = 0
KPD1 172201Z 31005KT 11/M09 A3008 RMK A01 T01051087  RH  025%=      5-min Rain = 0
KPD1 172202Z 30005KT 11/M09 A3008 RMK A01 T01061087  RH  025%=      5-min Rain = 0
KPD1 172203Z 28003KT 11/M09 A3008 RMK A01 T01061088  RH  025%=      5-min Rain = 0
KPD1 172204Z 25003KT 11/M09 A3009 RMK A01 T01051088  RH  025%=      5-min Rain = 0
KPD1 172205Z 26001KT 11/M09 A3008 RMK A01 T01061089  RH  025%=      5-min Rain = 0
KPD1 172206Z 17000KT 11/M09 A3008 RMK A01 T01061089  RH  024%=      5-min Rain = 0
KPD1 172207Z 21002KT 11/M09 A3008 RMK A01 T01071087  RH  025%=      5-min Rain = 0
KPD1 172208Z 24003KT 11/M09 A3008 RMK A01 T01091086  RH  025%=      5-min Rain = 0
KPD1 172209Z 20003KT 11/M09 A3008 RMK A01 T01091087  RH  024%=      5-min Rain = 0
KPD1 172210Z 21004KT 11/M09 A3008 RMK A01 T01111087  RH  024%=      5-min Rain = 0
KPD1 172211Z 26005KT 11/M09 A3008 RMK A01 T01101088  RH  024%=      5-min Rain = 0
KPD1 172212Z 26004KT 11/M09 A3008 RMK A01 T01081090  RH  024%=      5-min Rain = 0
KPD1 172213Z 25003KT 11/M09 A3008 RMK A01 T01081089  RH  024%=      5-min Rain = 0
KPD1 172214Z 29003KT 11/M09 A3008 RMK A01 T01081088  RH  024%=      5-min Rain = 0
KPD1 172215Z 22005KT 11/M09 A3008 RMK A01 T01081088  RH  024%=      5-min Rain = 0
KPD1 172216Z 21004KT 11/M09 A3008 RMK A01 T01081087  RH  024%=      5-min Rain = 0
KPD1 172217Z 22005KT 11/M09 A3008 RMK A01 T01081088  RH  024%=      5-min Rain = 0
KPD1 172218Z 22003KT 11/M09 A3008 RMK A01 T01071089  RH  024%=      5-min Rain = 0
KPD1 172219Z 18005KT 11/M09 A3008 RMK A01 T01061090  RH  024%=      5-min Rain = 0
KPD1 172220Z 18004KT 11/M09 A3008 RMK A01 T01061089  RH  024%=      5-min Rain = 0
KPD1 172221Z 15002KT 11/M09 A3008 RMK A01 T01051090  RH  024%=      5-min Rain = 0
KPD1 172222Z 16000KT 10/M09 A3008 RMK A01 T01041090  RH  025%=      5-min Rain = 0
KPD1 172223Z 10000KT 10/M09 A3008 RMK A01 T01041090  RH  025%=      5-min Rain = 0
KPD1 172224Z 01000KT 11/M09 A3008 RMK A01 T01061087  RH  025%=      5-min Rain = 0
KPD1 172225Z 33001KT 11/M09 A3008 RMK A01 T01071087  RH  025%=      5-min Rain = 0
KPD1 172226Z 30000KT 11/M09 A3008 RMK A01 T01071088  RH  024%=      5-min Rain = 0
KPD1 172227Z 26000KT 11/M09 A3007 RMK A01 T01071089  RH  024%=      5-min Rain = 0
KPD1 172228Z 28001KT 11/M09 A3008 RMK A01 T01081089  RH  024%=      5-min Rain = 0
KPD1 172229Z 29002KT 11/M09 A3007 RMK A01 T01081089  RH  024%=      5-min Rain = 0
KPD1 172230Z 26002KT 11/M09 A3007 RMK A01 T01071090  RH  024%=      5-min Rain = 0
KPD1 172231Z 25002KT 11/M09 A3007 RMK A01 T01061088  RH  025%=      5-min Rain = 0
KPD1 172232Z 26003KT 11/M09 A3007 RMK A01 T01071088  RH  025%=      5-min Rain = 0
KPD1 172233Z 26004KT 11/M09 A3007 RMK A01 T01081088  RH  024%=      5-min Rain = 0
KPD1 172234Z 26003KT 11/M09 A3007 RMK A01 T01061089  RH  024%=      5-min Rain = 0
KPD1 172235Z 23000KT 11/M09 A3007 RMK A01 T01061089  RH  024%=      5-min Rain = 0
KPD1 172236Z 25000KT 11/M09 A3007 RMK A01 T01061089  RH  024%=      5-min Rain = 0
KPD1 172237Z 28003KT 11/M09 A3007 RMK A01 T01071089  RH  024%=      5-min Rain = 0
KPD1 172238Z 26006KT 11/M09 A3007 RMK A01 T01071088  RH  024%=      5-min Rain = 0
KPD1 172239Z 25005KT 11/M09 A3007 RMK A01 T01061089  RH  024%=      5-min Rain = 0
KPD1 172240Z 22005KT 11/M09 A3007 RMK A01 T01061088  RH  025%=      5-min Rain = 0
KPD1 172241Z 22004KT 11/M09 A3007 RMK A01 T01061087  RH  025%=      5-min Rain = 0
KPD1 172242Z 23004KT 11/M09 A3007 RMK A01 T01061088  RH  025%=      5-min Rain = 0
KPD1 172243Z 22004KT 11/M09 A3007 RMK A01 T01061088  RH  025%=      5-min Rain = 0
KPD1 172244Z 22003KT 11/M09 A3007 RMK A01 T01061088  RH  025%=      5-min Rain = 0
KPD1 172245Z 23005KT 11/M09 A3007 RMK A01 T01061087  RH  025%=      5-min Rain = 0
KPD1 172246Z 23004KT 11/M09 A3007 RMK A01 T01061089  RH  025%=      5-min Rain = 0
KPD1 172247Z 20006KT 11/M09 A3007 RMK A01 T01051089  RH  025%=      5-min Rain = 0
KPD1 172248Z 20006KT 10/M09 A3007 RMK A01 T01041089  RH  025%=      5-min Rain = 0
KPD1 172249Z 22006KT 10/M09 A3007 RMK A01 T01031088  RH  025%=      5-min Rain = 0
KPD1 172250Z 22007KT 10/M09 A3007 RMK A01 T01041087  RH  025%=      5-min Rain = 0
KPD1 172251Z 22006KT 10/M09 A3007 RMK A01 T01031088  RH  025%=      5-min Rain = 0
KPD1 172252Z 22005KT 10/M09 A3007 RMK A01 T01021089  RH  025%=      5-min Rain = 0
KPD1 172253Z 21004KT 10/M09 A3007 RMK A01 T01011089  RH  025%=      5-min Rain = 0
KPD1 172254Z 20004KT 10/M09 A3007 RMK A01 T01011089  RH  025%=      5-min Rain = 0
KPD1 172255Z 19005KT 10/M09 A3007 RMK A01 T01001089  RH  025%=      5-min Rain = 0
KPD1 172256Z 18005KT 10/M09 A3007 RMK A01 T01001088  RH  026%=      5-min Rain = 0
KPD1 172257Z 20005KT 10/M09 A3007 RMK A01 T01001088  RH  026%=      5-min Rain = 0
KPD1 172258Z 20005KT 10/M09 A3007 RMK A01 T00991088  RH  026%=      5-min Rain = 0
KPD1 172259Z 20004KT 10/M09 A3007 RMK A01 T00991088  RH  026%=      5-min Rain = 0
KPD1 172300Z 20004KT 10/M09 A3007 RMK A01 T00991088  RH  026%=      5-min Rain = 0
KPD1 172301Z 18003KT 10/M09 A3007 RMK A01 T00991088  RH  026%=      5-min Rain = 0
KPD1 172302Z 21003KT 10/M09 A3007 RMK A01 T00991088  RH  026%=      5-min Rain = 0
KPD1 172303Z 20003KT 10/M09 A3007 RMK A01 T00991088  RH  026%=      5-min Rain = 0
KPD1 172304Z 21005KT 10/M09 A3007 RMK A01 T00991088  RH  026%=      5-min Rain = 0
KPD1 172305Z 22003KT 10/M09 A3007 RMK A01 T00991088  RH  026%=      5-min Rain = 0
KPD1 172306Z 21006KT 10/M09 A3007 RMK A01 T00981088  RH  026%=      5-min Rain = 0
KPD1 172307Z 22006KT 10/M09 A3007 RMK A01 T00981088  RH  026%=      5-min Rain = 0
KPD1 172308Z 21005KT 10/M09 A3007 RMK A01 T00971089  RH  026%=      5-min Rain = 0
KPD1 172309Z 21004KT 10/M09 A3007 RMK A01 T00971088  RH  026%=      5-min Rain = 0
KPD1 172310Z 20004KT 10/M09 A3007 RMK A01 T00971088  RH  026%=      5-min Rain = 0
KPD1 172311Z 21005KT 10/M09 A3007 RMK A01 T00971087  RH  026%=      5-min Rain = 0
KPD1 172312Z 21007KT 10/M09 A3007 RMK A01 T00971087  RH  026%=      5-min Rain = 0
KPD1 172313Z 21005KT 10/M09 A3007 RMK A01 T00971088  RH  026%=      5-min Rain = 0
KPD1 172314Z 21004KT 10/M09 A3007 RMK A01 T00971088  RH  026%=      5-min Rain = 0
KPD1 172315Z 21004KT 10/M09 A3007 RMK A01 T00961088  RH  026%=      5-min Rain = 0
KPD1 172316Z 21002KT 10/M09 A3006 RMK A01 T00961088  RH  026%=      5-min Rain = 0
KPD1 172317Z 22004KT 10/M09 A3006 RMK A01 T00961087  RH  027%=      5-min Rain = 0
KPD1 172318Z 22005KT 10/M09 A3006 RMK A01 T00961087  RH  027%=      5-min Rain = 0
KPD1 172319Z 22006KT 10/M09 A3006 RMK A01 T00951087  RH  027%=      5-min Rain = 0
KPD1 172320Z 23005KT 09/M09 A3006 RMK A01 T00941088  RH  027%=      5-min Rain = 0
KPD1 172321Z 22007KT 09/M09 A3006 RMK A01 T00931087  RH  027%=      5-min Rain = 0
KPD1 172322Z 22006KT 09/M09 A3006 RMK A01 T00921088  RH  027%=      5-min Rain = 0
KPD1 172323Z 22005KT 09/M09 A3006 RMK A01 T00931087  RH  027%=      5-min Rain = 0
KPD1 172324Z 22005KT 09/M09 A3006 RMK A01 T00921087  RH  027%=      5-min Rain = 0
KPD1 172325Z 22005KT 09/M09 A3006 RMK A01 T00921087  RH  027%=      5-min Rain = 0
KPD1 172326Z 22005KT 09/M09 A3006 RMK A01 T00931086  RH  027%=      5-min Rain = 0
KPD1 172327Z 21005KT 09/M09 A3006 RMK A01 T00931086  RH  027%=      5-min Rain = 0
KPD1 172328Z 21005KT 09/M09 A3006 RMK A01 T00921086  RH  027%=      5-min Rain = 0
KPD1 172329Z 21005KT 09/M09 A3006 RMK A01 T00931086  RH  028%=      5-min Rain = 0
KPD1 172330Z 21003KT 09/M09 A3006 RMK A01 T00921086  RH  028%=      5-min Rain = 0
KPD1 172331Z 21004KT 09/M09 A3006 RMK A01 T00921086  RH  028%=      5-min Rain = 0
KPD1 172332Z 21004KT 09/M09 A3006 RMK A01 T00921085  RH  028%=      5-min Rain = 0
KPD1 172333Z 21004KT 09/M09 A3006 RMK A01 T00921086  RH  028%=      5-min Rain = 0
KPD1 172334Z 21003KT 09/M09 A3006 RMK A01 T00921086  RH  028%=      5-min Rain = 0
KPD1 172335Z 21003KT 09/M09 A3006 RMK A01 T00921086  RH  028%=      5-min Rain = 0
KPD1 172336Z 22003KT 09/M09 A3006 RMK A01 T00921085  RH  028%=      5-min Rain = 0
KPD1 172337Z 21003KT 09/M09 A3006 RMK A01 T00921086  RH  028%=      5-min Rain = 0
KPD1 172338Z 22004KT 09/M09 A3006 RMK A01 T00921085  RH  028%=      5-min Rain = 0
KPD1 172339Z 21005KT 09/M09 A3006 RMK A01 T00901086  RH  028%=      5-min Rain = 0
KPD1 172340Z 21004KT 09/M09 A3006 RMK A01 T00891086  RH  028%=      5-min Rain = 0
KPD1 172341Z 21003KT 09/M09 A3006 RMK A01 T00881086  RH  028%=      5-min Rain = 0
KPD1 172342Z 21003KT 09/M09 A3006 RMK A01 T00881086  RH  028%=      5-min Rain = 0
KPD1 172343Z 21003KT 09/M09 A3006 RMK A01 T00871086  RH  028%=      5-min Rain = 0
KPD1 172344Z 21004KT 09/M09 A3006 RMK A01 T00871086  RH  029%=      5-min Rain = 0
KPD1 172345Z 21003KT 09/M09 A3006 RMK A01 T00871086  RH  029%=      5-min Rain = 0
KPD1 172346Z 21003KT 09/M09 A3006 RMK A01 T00861086  RH  029%=      5-min Rain = 0
KPD1 172347Z 21003KT 09/M09 A3006 RMK A01 T00851086  RH  029%=      5-min Rain = 0
KPD1 172348Z 21003KT 09/M09 A3006 RMK A01 T00851086  RH  029%=      5-min Rain = 0
KPD1 172349Z 21003KT 08/M09 A3006 RMK A01 T00841086  RH  029%=      5-min Rain = 0
KPD1 172350Z 21003KT 08/M09 A3006 RMK A01 T00831086  RH  029%=      5-min Rain = 0
KPD1 172351Z 21003KT 08/M09 A3006 RMK A01 T00831086  RH  029%=      5-min Rain = 0
KPD1 172352Z 21003KT 08/M09 A3006 RMK A01 T00821087  RH  029%=      5-min Rain = 0
KPD1 172353Z 21004KT 08/M09 A3007 RMK A01 T00811087  RH  030%=      5-min Rain = 0
KPD1 172354Z 21004KT 08/M09 A3006 RMK A01 T00801087  RH  030%=      5-min Rain = 0
KPD1 172355Z 21004KT 08/M09 A3006 RMK A01 T00791087  RH  030%=      5-min Rain = 0
KPD1 172356Z 21004KT 08/M09 A3006 RMK A01 T00781087  RH  030%=      5-min Rain = 0
KPD1 172357Z 21003KT 08/M09 A3006 RMK A01 T00771087  RH  030%=      5-min Rain = 0
KPD1 172358Z 21003KT 08/M09 A3006 RMK A01 T00761087  RH  030%=      5-min Rain = 0
KPD1 172359Z 20003KT 08/M09 A3006 RMK A01 T00751087  RH  031%=      5-min Rain = 0
KPD1 180000Z 20003KT 08/M09 A3006 RMK A01 T00751087  RH  031%=      5-min Rain = 0
KPD1 180001Z 21004KT 07/M09 A3006 RMK A01 T00731087  RH  031%=      5-min Rain = 0
KPD1 180002Z 20003KT 07/M09 A3006 RMK A01 T00731087  RH  031%=      5-min Rain = 0
KPD1 180003Z 20003KT 07/M09 A3006 RMK A01 T00721087  RH  031%=      5-min Rain = 0
KPD1 180004Z 20003KT 07/M09 A3006 RMK A01 T00711087  RH  031%=      5-min Rain = 0
KPD1 180005Z 20003KT 07/M09 A3006 RMK A01 T00701088  RH  032%=      5-min Rain = 0
KPD1 180006Z 21003KT 07/M09 A3006 RMK A01 T00691088  RH  032%=      5-min Rain = 0
KPD1 180007Z 21004KT 07/M09 A3006 RMK A01 T00681087  RH  032%=      5-min Rain = 0
KPD1 180008Z 21003KT 07/M09 A3006 RMK A01 T00681087  RH  032%=      5-min Rain = 0
KPD1 180009Z 21004KT 07/M09 A3006 RMK A01 T00671087  RH  032%=      5-min Rain = 0
KPD1 180010Z 20004KT 07/M09 A3006 RMK A01 T00671087  RH  032%=      5-min Rain = 0
KPD1 180011Z 21004KT 07/M09 A3006 RMK A01 T00661087  RH  033%=      5-min Rain = 0
KPD1 180012Z 20004KT 07/M09 A3006 RMK A01 T00661087  RH  033%=      5-min Rain = 0
KPD1 180013Z 21004KT 07/M09 A3006 RMK A01 T00651087  RH  033%=      5-min Rain = 0
KPD1 180014Z 21004KT 06/M09 A3006 RMK A01 T00641086  RH  033%=      5-min Rain = 0
KPD1 180015Z 21004KT 06/M09 A3006 RMK A01 T00641086  RH  033%=      5-min Rain = 0
KPD1 180016Z 21004KT 06/M09 A3006 RMK A01 T00641086  RH  033%=      5-min Rain = 0
KPD1 180017Z 21005KT 06/M09 A3006 RMK A01 T00641085  RH  034%=      5-min Rain = 0
KPD1 180018Z 21005KT 06/M09 A3006 RMK A01 T00641085  RH  034%=      5-min Rain = 0
KPD1 180019Z 21004KT 06/M09 A3006 RMK A01 T00631085  RH  034%=      5-min Rain = 0
KPD1 180020Z 22004KT 06/M09 A3006 RMK A01 T00641085  RH  034%=      5-min Rain = 0
KPD1 180021Z 22004KT 06/M08 A3006 RMK A01 T00641084  RH  034%=      5-min Rain = 0
KPD1 180022Z 22004KT 06/M08 A3006 RMK A01 T00641084  RH  034%=      5-min Rain = 0
KPD1 180023Z 22004KT 06/M08 A3006 RMK A01 T00641084  RH  034%=      5-min Rain = 0
KPD1 180024Z 21004KT 06/M08 A3006 RMK A01 T00641084  RH  034%=      5-min Rain = 0
KPD1 180025Z 21004KT 06/M08 A3006 RMK A01 T00641084  RH  034%=      5-min Rain = 0
KPD1 180026Z 21004KT 06/M08 A3006 RMK A01 T00641083  RH  034%=      5-min Rain = 0
KPD1 180027Z 22004KT 06/M08 A3006 RMK A01 T00631083  RH  034%=      5-min Rain = 0
KPD1 180028Z 22004KT 06/M08 A3006 RMK A01 T00631082  RH  034%=      5-min Rain = 0
KPD1 180029Z 22005KT 06/M08 A3006 RMK A01 T00631082  RH  035%=      5-min Rain = 0
KPD1 180030Z 22005KT 06/M08 A3006 RMK A01 T00621083  RH  035%=      5-min Rain = 0
KPD1 180031Z 23004KT 06/M08 A3006 RMK A01 T00611084  RH  035%=      5-min Rain = 0
KPD1 180032Z 23003KT 06/M08 A3006 RMK A01 T00601084  RH  035%=      5-min Rain = 0
KPD1 180033Z 23004KT 06/M08 A3006 RMK A01 T00591084  RH  035%=      5-min Rain = 0
KPD1 180034Z 23004KT 06/M08 A3006 RMK A01 T00581083  RH  035%=      5-min Rain = 0
KPD1 180035Z 23004KT 06/M08 A3006 RMK A01 T00571083  RH  036%=      5-min Rain = 0
KPD1 180036Z 23004KT 06/M08 A3006 RMK A01 T00571082  RH  036%=      5-min Rain = 0
KPD1 180037Z 22005KT 06/M08 A3006 RMK A01 T00571082  RH  036%=      5-min Rain = 0
KPD1 180038Z 23005KT 06/M08 A3007 RMK A01 T00561082  RH  036%=      5-min Rain = 0
KPD1 180039Z 23004KT 06/M08 A3007 RMK A01 T00571082  RH  036%=      5-min Rain = 0
KPD1 180040Z 23005KT 06/M08 A3007 RMK A01 T00571081  RH  036%=      5-min Rain = 0
KPD1 180041Z 22004KT 06/M08 A3007 RMK A01 T00561081  RH  036%=      5-min Rain = 0
KPD1 180042Z 22004KT 06/M08 A3007 RMK A01 T00561081  RH  036%=      5-min Rain = 0
KPD1 180043Z 22004KT 06/M08 A3007 RMK A01 T00561081  RH  037%=      5-min Rain = 0
KPD1 180044Z 21004KT 06/M08 A3006 RMK A01 T00551082  RH  036%=      5-min Rain = 0
KPD1 180045Z 22005KT 06/M08 A3006 RMK A01 T00551082  RH  037%=      5-min Rain = 0
KPD1 180046Z 21005KT 06/M08 A3006 RMK A01 T00551081  RH  037%=      5-min Rain = 0
KPD1 180047Z 22005KT 06/M08 A3006 RMK A01 T00551081  RH  037%=      5-min Rain = 0
KPD1 180048Z 22006KT 05/M08 A3006 RMK A01 T00541081  RH  037%=      5-min Rain = 0
KPD1 180049Z 22006KT 05/M08 A3006 RMK A01 T00541080  RH  037%=      5-min Rain = 0
KPD1 180050Z 22007KT 05/M08 A3006 RMK A01 T00541080  RH  037%=      5-min Rain = 0
KPD1 180051Z 22006KT 06/M08 A3006 RMK A01 T00551079  RH  037%=      5-min Rain = 0
KPD1 180052Z 22006KT 06/M08 A3006 RMK A01 T00561078  RH  038%=      5-min Rain = 0
KPD1 180053Z 22007KT 06/M08 A3006 RMK A01 T00571076  RH  038%=      5-min Rain = 0
KPD1 180054Z 22007KT 06/M08 A3006 RMK A01 T00591076  RH  037%=      5-min Rain = 0
KPD1 180055Z 22007KT 06/M08 A3006 RMK A01 T00601075  RH  037%=      5-min Rain = 0
KPD1 180056Z 21007KT 06/M08 A3006 RMK A01 T00611075  RH  037%=      5-min Rain = 0
KPD1 180057Z 21007KT 06/M08 A3006 RMK A01 T00621075  RH  037%=      5-min Rain = 0
KPD1 180058Z 22007KT 06/M08 A3006 RMK A01 T00621075  RH  037%=      5-min Rain = 0
KPD1 180059Z 21007KT 06/M07 A3006 RMK A01 T00631074  RH  037%=      5-min Rain = 0
KPD1 180100Z 22007KT 06/M07 A3006 RMK A01 T00641074  RH  037%=      5-min Rain = 0
KPD1 180101Z 22006KT 06/M07 A3006 RMK A01 T00641074  RH  037%=      5-min Rain = 0
KPD1 180102Z 22007KT 06/M07 A3006 RMK A01 T00641074  RH  037%=      5-min Rain = 0
KPD1 180103Z 21007KT 06/M07 A3006 RMK A01 T00641074  RH  037%=      5-min Rain = 0
KPD1 180104Z 21006KT 06/M07 A3006 RMK A01 T00641074  RH  037%=      5-min Rain = 0
KPD1 180105Z 20006KT 06/M07 A3006 RMK A01 T00641074  RH  037%=      5-min Rain = 0
KPD1 180106Z 21006KT 06/M07 A3006 RMK A01 T00631074  RH  037%=      5-min Rain = 0
KPD1 180107Z 20006KT 06/M07 A3006 RMK A01 T00631074  RH  037%=      5-min Rain = 0
KPD1 180108Z 20006KT 06/M07 A3006 RMK A01 T00621074  RH  037%=      5-min Rain = 0
KPD1 180109Z 20006KT 06/M07 A3006 RMK A01 T00621074  RH  037%=      5-min Rain = 0
KPD1 180110Z 20006KT 06/M07 A3006 RMK A01 T00621074  RH  037%=      5-min Rain = 0
KPD1 180111Z 21006KT 06/M07 A3006 RMK A01 T00621074  RH  037%=      5-min Rain = 0
KPD1 180112Z 21006KT 06/M08 A3006 RMK A01 T00611075  RH  037%=      5-min Rain = 0
KPD1 180113Z 21006KT 06/M08 A3006 RMK A01 T00601075  RH  037%=      5-min Rain = 0
KPD1 180114Z 21006KT 06/M08 A3006 RMK A01 T00601075  RH  037%=      5-min Rain = 0
KPD1 180115Z 20006KT 06/M08 A3006 RMK A01 T00591075  RH  038%=      5-min Rain = 0
KPD1 180116Z 20005KT 06/M07 A3006 RMK A01 T00591074  RH  038%=      5-min Rain = 0
KPD1 180117Z 20005KT 06/M07 A3006 RMK A01 T00591074  RH  038%=      5-min Rain = 0
KPD1 180118Z 20005KT 06/M07 A3006 RMK A01 T00581074  RH  038%=      5-min Rain = 0
KPD1 180119Z 20005KT 06/M07 A3005 RMK A01 T00581074  RH  038%=      5-min Rain = 0
KPD1 180120Z 21006KT 06/M08 A3005 RMK A01 T00571075  RH  038%=      5-min Rain = 0
KPD1 180121Z 21006KT 06/M08 A3005 RMK A01 T00571075  RH  038%=      5-min Rain = 0
KPD1 180122Z 21004KT 06/M08 A3005 RMK A01 T00561075  RH  038%=      5-min Rain = 0
KPD1 180123Z 20006KT 06/M08 A3005 RMK A01 T00561075  RH  038%=      5-min Rain = 0
KPD1 180124Z 21005KT 06/M08 A3005 RMK A01 T00561075  RH  039%=      5-min Rain = 0
KPD1 180125Z 21005KT 06/M07 A3005 RMK A01 T00551074  RH  039%=      5-min Rain = 0
KPD1 180126Z 21005KT 06/M07 A3005 RMK A01 T00551074  RH  039%=      5-min Rain = 0
KPD1 180127Z 21004KT 05/M08 A3005 RMK A01 T00541075  RH  039%=      5-min Rain = 0
KPD1 180128Z 21005KT 05/M08 A3005 RMK A01 T00531075  RH  039%=      5-min Rain = 0
KPD1 180129Z 21005KT 05/M08 A3005 RMK A01 T00531075  RH  039%=      5-min Rain = 0
KPD1 180130Z 21006KT 05/M08 A3005 RMK A01 T00521075  RH  039%=      5-min Rain = 0
KPD1 180131Z 21006KT 05/M08 A3005 RMK A01 T00521075  RH  039%=      5-min Rain = 0
KPD1 180132Z 22005KT 05/M08 A3005 RMK A01 T00511075  RH  040%=      5-min Rain = 0
KPD1 180133Z 22005KT 05/M07 A3005 RMK A01 T00511074  RH  040%=      5-min Rain = 0
KPD1 180134Z 21006KT 05/M07 A3005 RMK A01 T00511074  RH  040%=      5-min Rain = 0
KPD1 180135Z 22006KT 05/M08 A3005 RMK A01 T00511075  RH  040%=      5-min Rain = 0
KPD1 180136Z 21006KT 05/M07 A3005 RMK A01 T00501074  RH  040%=      5-min Rain = 0
KPD1 180137Z 21006KT 05/M07 A3005 RMK A01 T00511074  RH  040%=      5-min Rain = 0
KPD1 180138Z 21006KT 05/M07 A3005 RMK A01 T00501074  RH  040%=      5-min Rain = 0
KPD1 180139Z 21006KT 05/M07 A3005 RMK A01 T00501073  RH  040%=      5-min Rain = 0
KPD1 180140Z 21007KT 05/M07 A3005 RMK A01 T00511073  RH  040%=      5-min Rain = 0
KPD1 180141Z 21006KT 05/M07 A3005 RMK A01 T00511073  RH  040%=      5-min Rain = 0
KPD1 180142Z 21006KT 05/M07 A3005 RMK A01 T00521072  RH  040%=      5-min Rain = 0
KPD1 180143Z 21007KT 05/M07 A3005 RMK A01 T00521072  RH  040%=      5-min Rain = 0
KPD1 180144Z 21008KT 05/M07 A3005 RMK A01 T00521071  RH  040%=      5-min Rain = 0
KPD1 180145Z 20007KT 05/M07 A3005 RMK A01 T00531071  RH  040%=      5-min Rain = 0
KPD1 180146Z 21007KT 05/M07 A3005 RMK A01 T00531071  RH  040%=      5-min Rain = 0
KPD1 180147Z 21008KT 05/M07 A3005 RMK A01 T00531072  RH  040%=      5-min Rain = 0
KPD1 180148Z 21007KT 05/M07 A3005 RMK A01 T00531071  RH  040%=      5-min Rain = 0
KPD1 180149Z 21007KT 05/M07 A3005 RMK A01 T00531071  RH  040%=      5-min Rain = 0
KPD1 180150Z 21008KT 05/M07 A3005 RMK A01 T00541070  RH  040%=      5-min Rain = 0
KPD1 180151Z 21007KT 06/M07 A3005 RMK A01 T00551070  RH  040%=      5-min Rain = 0
KPD1 180152Z 21007KT 05/M07 A3005 RMK A01 T00541071  RH  040%=      5-min Rain = 0
KPD1 180153Z 21007KT 05/M07 A3005 RMK A01 T00541071  RH  040%=      5-min Rain = 0
KPD1 180154Z 21008KT 05/M07 A3005 RMK A01 T00541071  RH  040%=      5-min Rain = 0
KPD1 180155Z 22007KT 05/M07 A3005 RMK A01 T00531071  RH  040%=      5-min Rain = 0
KPD1 180156Z 21009KT 05/M07 A3005 RMK A01 T00531071  RH  040%=      5-min Rain = 0
KPD1 180157Z 21008KT 05/M07 A3005 RMK A01 T00531071  RH  040%=      5-min Rain = 0
KPD1 180158Z 21008KT 05/M07 A3005 RMK A01 T00531071  RH  040%=      5-min Rain = 0
KPD1 180159Z 21007KT 05/M07 A3005 RMK A01 T00531071  RH  040%=      5-min Rain = 0
KPD1 180200Z 21009KT 05/M07 A3005 RMK A01 T00531071  RH  040%=      5-min Rain = 0
KPD1 180201Z 21009KT 05/M07 A3005 RMK A01 T00521071  RH  040%=      5-min Rain = 0
KPD1 180202Z 21008KT 05/M07 A3005 RMK A01 T00531071  RH  041%=      5-min Rain = 0
KPD1 180203Z 21007KT 05/M07 A3005 RMK A01 T00531070  RH  041%=      5-min Rain = 0
KPD1 180204Z 21008KT 05/M07 A3005 RMK A01 T00521071  RH  041%=      5-min Rain = 0
KPD1 180205Z 21009KT 05/M07 A3005 RMK A01 T00521071  RH  041%=      5-min Rain = 0
KPD1 180206Z 21010KT 05/M07 A3005 RMK A01 T00521071  RH  041%=      5-min Rain = 0
KPD1 180207Z 21008KT 05/M07 A3005 RMK A01 T00521071  RH  041%=      5-min Rain = 0
KPD1 180208Z 20008KT 05/M07 A3005 RMK A01 T00521071  RH  041%=      5-min Rain = 0
KPD1 180209Z 20008KT 05/M07 A3005 RMK A01 T00531070  RH  041%=      5-min Rain = 0
KPD1 180210Z 20008KT 05/M07 A3005 RMK A01 T00521071  RH  041%=      5-min Rain = 0
KPD1 180211Z 21008KT 05/M07 A3005 RMK A01 T00531071  RH  041%=      5-min Rain = 0
KPD1 180212Z 21007KT 05/M07 A3005 RMK A01 T00531071  RH  041%=      5-min Rain = 0
KPD1 180213Z 20009KT 05/M07 A3005 RMK A01 T00521071  RH  041%=      5-min Rain = 0
KPD1 180214Z 21008KT 05/M07 A3005 RMK A01 T00521071  RH  041%=      5-min Rain = 0
KPD1 180215Z 20008KT 05/M07 A3005 RMK A01 T00521071  RH  041%=      5-min Rain = 0
KPD1 180216Z 20008KT 05/M07 A3004 RMK A01 T00521070  RH  041%=      5-min Rain = 0
KPD1 180217Z 20007KT 05/M07 A3004 RMK A01 T00521071  RH  041%=      5-min Rain = 0
KPD1 180218Z 20007KT 05/M07 A3004 RMK A01 T00521071  RH  041%=      5-min Rain = 0
KPD1 180219Z 21007KT 05/M07 A3004 RMK A01 T00511071  RH  041%=      5-min Rain = 0
KPD1 180220Z 21007KT 05/M07 A3004 RMK A01 T00511071  RH  041%=      5-min Rain = 0
KPD1 180221Z 21007KT 05/M07 A3004 RMK A01 T00501071  RH  041%=      5-min Rain = 0
KPD1 180222Z 21007KT 05/M07 A3004 RMK A01 T00501071  RH  041%=      5-min Rain = 0
KPD1 180223Z 21008KT 05/M07 A3004 RMK A01 T00491071  RH  041%=      5-min Rain = 0
KPD1 180224Z 21008KT 05/M07 A3004 RMK A01 T00491071  RH  042%=      5-min Rain = 0
KPD1 180225Z 21007KT 05/M07 A3004 RMK A01 T00491070  RH  042%=      5-min Rain = 0
KPD1 180226Z 20008KT 05/M07 A3004 RMK A01 T00491071  RH  042%=      5-min Rain = 0
KPD1 180227Z 21007KT 05/M07 A3004 RMK A01 T00481071  RH  042%=      5-min Rain = 0
KPD1 180228Z 21007KT 05/M07 A3004 RMK A01 T00481071  RH  042%=      5-min Rain = 0
KPD1 180229Z 20007KT 05/M07 A3004 RMK A01 T00481071  RH  042%=      5-min Rain = 0
KPD1 180230Z 21008KT 05/M07 A3004 RMK A01 T00481070  RH  042%=      5-min Rain = 0
KPD1 180231Z 21009KT 05/M07 A3004 RMK A01 T00471071  RH  042%=      5-min Rain = 0
KPD1 180232Z 21009KT 05/M07 A3004 RMK A01 T00471071  RH  042%=      5-min Rain = 0
KPD1 180233Z 21008KT 05/M07 A3004 RMK A01 T00471071  RH  042%=      5-min Rain = 0
KPD1 180234Z 21009KT 05/M07 A3004 RMK A01 T00471071  RH  042%=      5-min Rain = 0
KPD1 180235Z 21007KT 05/M07 A3004 RMK A01 T00471071  RH  042%=      5-min Rain = 0
KPD1 180236Z 21008KT 05/M07 A3004 RMK A01 T00471071  RH  042%=      5-min Rain = 0
KPD1 180237Z 20008KT 05/M07 A3004 RMK A01 T00471071  RH  042%=      5-min Rain = 0
KPD1 180238Z 21008KT 05/M07 A3004 RMK A01 T00471071  RH  042%=      5-min Rain = 0
KPD1 180239Z 20009KT 05/M07 A3004 RMK A01 T00471070  RH  042%=      5-min Rain = 0
KPD1 180240Z 21009KT 05/M07 A3004 RMK A01 T00471070  RH  042%=      5-min Rain = 0
KPD1 180241Z 21008KT 05/M07 A3004 RMK A01 T00471071  RH  042%=      5-min Rain = 0
KPD1 180242Z 21009KT 05/M07 A3004 RMK A01 T00471070  RH  042%=      5-min Rain = 0
KPD1 180243Z 20007KT 05/M07 A3004 RMK A01 T00481070  RH  042%=      5-min Rain = 0
KPD1 180244Z 21008KT 05/M07 A3004 RMK A01 T00481070  RH  042%=      5-min Rain = 0
KPD1 180245Z 21007KT 05/M07 A3004 RMK A01 T00481070  RH  042%=      5-min Rain = 0
KPD1 180246Z 21008KT 05/M07 A3004 RMK A01 T00471071  RH  042%=      5-min Rain = 0
KPD1 180247Z 21008KT 05/M07 A3004 RMK A01 T00471071  RH  042%=      5-min Rain = 0
KPD1 180248Z 21007KT 05/M07 A3004 RMK A01 T00461071  RH  042%=      5-min Rain = 0
KPD1 180249Z 21007KT 05/M07 A3004 RMK A01 T00461071  RH  042%=      5-min Rain = 0
KPD1 180250Z 21008KT 05/M07 A3004 RMK A01 T00451071  RH  043%=      5-min Rain = 0
KPD1 180251Z 21007KT 05/M07 A3003 RMK A01 T00451071  RH  043%=      5-min Rain = 0
KPD1 180252Z 21007KT 05/M07 A3003 RMK A01 T00451071  RH  043%=      5-min Rain = 0
KPD1 180253Z 20007KT 05/M07 A3003 RMK A01 T00451071  RH  043%=      5-min Rain = 0
KPD1 180254Z 20008KT 04/M07 A3003 RMK A01 T00441072  RH  043%=      5-min Rain = 0
KPD1 180255Z 21007KT 04/M07 A3003 RMK A01 T00441071  RH  043%=      5-min Rain = 0
KPD1 180256Z 21007KT 05/M07 A3003 RMK A01 T00451071  RH  043%=      5-min Rain = 0
KPD1 180257Z 20007KT 04/M07 A3003 RMK A01 T00441072  RH  043%=      5-min Rain = 0
KPD1 180258Z 21007KT 04/M07 A3003 RMK A01 T00431072  RH  043%=      5-min Rain = 0
KPD1 180259Z 21008KT 04/M07 A3003 RMK A01 T00431072  RH  043%=      5-min Rain = 0
KPD1 180300Z 21008KT 04/M07 A3003 RMK A01 T00431072  RH  043%=      5-min Rain = 0
KPD1 180301Z 21007KT 04/M07 A3003 RMK A01 T00431071  RH  043%=      5-min Rain = 0
KPD1 180302Z 21007KT 04/M07 A3003 RMK A01 T00431072  RH  043%=      5-min Rain = 0
KPD1 180303Z 21007KT 04/M07 A3003 RMK A01 T00431072  RH  043%=      5-min Rain = 0
KPD1 180304Z 21007KT 04/M07 A3003 RMK A01 T00421073  RH  043%=      5-min Rain = 0
KPD1 180305Z 21007KT 04/M07 A3003 RMK A01 T00411073  RH  043%=      5-min Rain = 0
KPD1 180306Z 21008KT 04/M07 A3003 RMK A01 T00411073  RH  043%=      5-min Rain = 0
KPD1 180307Z 21008KT 04/M07 A3003 RMK A01 T00411073  RH  043%=      5-min Rain = 0
KPD1 180308Z 21009KT 04/M07 A3003 RMK A01 T00411073  RH  043%=      5-min Rain = 0
KPD1 180309Z 21008KT 04/M07 A3003 RMK A01 T00411073  RH  043%=      5-min Rain = 0
KPD1 180310Z 21008KT 04/M07 A3003 RMK A01 T00421073  RH  043%=      5-min Rain = 0
KPD1 180311Z 21008KT 04/M07 A3003 RMK A01 T00421073  RH  043%=      5-min Rain = 0
KPD1 180312Z 21008KT 04/M07 A3003 RMK A01 T00421073  RH  043%=      5-min Rain = 0
KPD1 180313Z 21008KT 04/M07 A3003 RMK A01 T00421073  RH  043%=      5-min Rain = 0
KPD1 180314Z 21007KT 04/M07 A3003 RMK A01 T00421073  RH  043%=      5-min Rain = 0
KPD1 180315Z 21007KT 04/M07 A3003 RMK A01 T00421073  RH  043%=      5-min Rain = 0
KPD1 180316Z 21007KT 04/M07 A3003 RMK A01 T00411074  RH  043%=      5-min Rain = 0
KPD1 180317Z 21008KT 04/M07 A3003 RMK A01 T00411073  RH  043%=      5-min Rain = 0
KPD1 180318Z 21008KT 04/M07 A3003 RMK A01 T00411073  RH  043%=      5-min Rain = 0
KPD1 180319Z 20008KT 04/M07 A3002 RMK A01 T00411073  RH  043%=      5-min Rain = 0
KPD1 180320Z 21010KT 04/M07 A3002 RMK A01 T00411073  RH  043%=      5-min Rain = 0
KPD1 180321Z 21009KT 04/M07 A3002 RMK A01 T00411072  RH  043%=      5-min Rain = 0
KPD1 180322Z 21009KT 04/M07 A3002 RMK A01 T00421072  RH  043%=      5-min Rain = 0
KPD1 180323Z 21009KT 04/M07 A3002 RMK A01 T00431072  RH  043%=      5-min Rain = 0
KPD1 180324Z 21010KT 04/M07 A3002 RMK A01 T00431072  RH  043%=      5-min Rain = 0
KPD1 180325Z 21011KT 04/M07 A3002 RMK A01 T00431071  RH  043%=      5-min Rain = 0
KPD1 180326Z 20010KT 05/M07 A3002 RMK A01 T00451069  RH  043%=      5-min Rain = 0
KPD1 180327Z 20010G15KT 05/M07 A3002 RMK A01 T00451069  RH  043%=      5-min Rain = 0
KPD1 180328Z 21012KT 05/M07 A3002 RMK A01 T00461069  RH  043%=      5-min Rain = 0
KPD1 180329Z 21011KT 05/M07 A3002 RMK A01 T00471068  RH  043%=      5-min Rain = 0
KPD1 180330Z 21010G15KT 05/M07 A3002 RMK A01 T00471069  RH  043%=      5-min Rain = 0
KPD1 180331Z 21011KT 05/M07 A3002 RMK A01 T00471069  RH  043%=      5-min Rain = 0
KPD1 180332Z 21010KT 05/M07 A3002 RMK A01 T00471069  RH  043%=      5-min Rain = 0
KPD1 180333Z 20012KT 05/M07 A3002 RMK A01 T00471069  RH  043%=      5-min Rain = 0
KPD1 180334Z 21011KT 05/M07 A3002 RMK A01 T00471069  RH  043%=      5-min Rain = 0
KPD1 180335Z 20011KT 05/M07 A3002 RMK A01 T00471068  RH  043%=      5-min Rain = 0
KPD1 180336Z 20012KT 05/M07 A3002 RMK A01 T00471068  RH  043%=      5-min Rain = 0
KPD1 180337Z 22010KT 05/M07 A3002 RMK A01 T00471068  RH  043%=      5-min Rain = 0
KPD1 180338Z 21011KT 05/M07 A3002 RMK A01 T00471068  RH  043%=      5-min Rain = 0
KPD1 180339Z 21011G16KT 05/M07 A3002 RMK A01 T00461069  RH  043%=      5-min Rain = 0
KPD1 180340Z 20012KT 05/M07 A3001 RMK A01 T00461068  RH  043%=      5-min Rain = 0
KPD1 180341Z 21013KT 05/M07 A3001 RMK A01 T00461068  RH  044%=      5-min Rain = 0
KPD1 180342Z 20011KT 05/M07 A3001 RMK A01 T00461067  RH  044%=      5-min Rain = 0
KPD1 180343Z 21013KT 05/M07 A3001 RMK A01 T00461067  RH  044%=      5-min Rain = 0
KPD1 180344Z 20013KT 05/M07 A3001 RMK A01 T00461067  RH  044%=      5-min Rain = 0
KPD1 180345Z 21009KT 05/M07 A3001 RMK A01 T00461066  RH  044%=      5-min Rain = 0
KPD1 180346Z 21011KT 05/M07 A3001 RMK A01 T00451067  RH  044%=      5-min Rain = 0
KPD1 180347Z 21012KT 05/M07 A3001 RMK A01 T00451066  RH  044%=      5-min Rain = 0
KPD1 180348Z 21013G18KT 05/M07 A3001 RMK A01 T00451066  RH  045%=      5-min Rain = 0
KPD1 180349Z 21011G16KT 05/M07 A3001 RMK A01 T00451065  RH  045%=      5-min Rain = 0
KPD1 180350Z 21013KT 05/M07 A3001 RMK A01 T00451065  RH  045%=      5-min Rain = 0
KPD1 180351Z 20013KT 05/M07 A3001 RMK A01 T00451065  RH  045%=      5-min Rain = 0
KPD1 180352Z 21010KT 05/M07 A3001 RMK A01 T00451065  RH  045%=      5-min Rain = 0
KPD1 180353Z 20012G17KT 05/M07 A3001 RMK A01 T00451065  RH  045%=      5-min Rain = 0
KPD1 180354Z 20013KT 04/M07 A3001 RMK A01 T00441065  RH  045%=      5-min Rain = 0
KPD1 180355Z 20013G18KT 04/M07 A3001 RMK A01 T00441065  RH  045%=      5-min Rain = 0
KPD1 180356Z 20013KT 05/M06 A3001 RMK A01 T00451064  RH  045%=      5-min Rain = 0
KPD1 180357Z 20011KT 05/M06 A3001 RMK A01 T00461063  RH  045%=      5-min Rain = 0
KPD1 180358Z 19011KT 05/M06 A3001 RMK A01 T00461063  RH  045%=      5-min Rain = 0
KPD1 180359Z 19009G14KT 05/M06 A3001 RMK A01 T00451063  RH  045%=      5-min Rain = 0
KPD1 180400Z 20013KT 05/M06 A30 RMK A01 T00451063  RH  045%=      5-min Rain = 0
KPD1 180401Z 20012KT 05/M06 A30 RMK A01 T00451063  RH  046%=      5-min Rain = 0
KPD1 180402Z 20010G15KT 05/M06 A30 RMK A01 T00451062  RH  046%=      5-min Rain = 0
KPD1 180403Z 20012KT 05/M06 A30 RMK A01 T00451062  RH  046%=      5-min Rain = 0
KPD1 180404Z 20010KT 05/M06 A30 RMK A01 T00451062  RH  046%=      5-min Rain = 0
KPD1 180405Z 20010KT 05/M06 A30 RMK A01 T00451062  RH  046%=      5-min Rain = 0
KPD1 180406Z 20013KT 04/M06 A30 RMK A01 T00441063  RH  046%=      5-min Rain = 0
KPD1 180407Z 20012KT 04/M06 A30 RMK A01 T00441061  RH  046%=      5-min Rain = 0
KPD1 180408Z 20010G16KT 05/M06 A30 RMK A01 T00451061  RH  046%=      5-min Rain = 0
KPD1 180409Z 20011KT 05/M06 A30 RMK A01 T00451061  RH  046%=      5-min Rain = 0
KPD1 180410Z 19013KT 05/M06 A30 RMK A01 T00451061  RH  046%=      5-min Rain = 0
KPD1 180411Z 20013KT 05/M06 A30 RMK A01 T00451061  RH  046%=      5-min Rain = 0
KPD1 180412Z 20010KT 05/M06 A30 RMK A01 T00451061  RH  046%=      5-min Rain = 0
KPD1 180413Z 20011G16KT 05/M06 A30 RMK A01 T00451061  RH  046%=      5-min Rain = 0
KPD1 180414Z 19012KT 05/M06 A30 RMK A01 T00451061  RH  046%=      5-min Rain = 0
KPD1 180415Z 20013KT 05/M06 A30 RMK A01 T00451061  RH  046%=      5-min Rain = 0
KPD1 180416Z 20014KT 05/M06 A30 RMK A01 T00451060  RH  046%=      5-min Rain = 0
KPD1 180417Z 20014G19KT 05/M06 A30 RMK A01 T00461059  RH  046%=      5-min Rain = 0
KPD1 180418Z 20013KT 05/M06 A30 RMK A01 T00461059  RH  046%=      5-min Rain = 0
KPD1 180419Z 20013KT 05/M06 A30 RMK A01 T00471059  RH  046%=      5-min Rain = 0
KPD1 180420Z 20012KT 05/M06 A30 RMK A01 T00461059  RH  046%=      5-min Rain = 0
KPD1 180421Z 21013KT 05/M06 A30 RMK A01 T00461059  RH  046%=      5-min Rain = 0
KPD1 180422Z 20012G17KT 05/M06 A30 RMK A01 T00461059  RH  046%=      5-min Rain = 0
KPD1 180423Z 20012KT 05/M06 A30 RMK A01 T00461059  RH  047%=      5-min Rain = 0
KPD1 180424Z 20015KT 05/M06 A30 RMK A01 T00461059  RH  047%=      5-min Rain = 0
KPD1 180425Z 20013KT 05/M06 A30 RMK A01 T00461059  RH  047%=      5-min Rain = 0
KPD1 180426Z 20010KT 05/M06 A30 RMK A01 T00461059  RH  047%=      5-min Rain = 0
KPD1 180427Z 20011KT 05/M06 A30 RMK A01 T00451059  RH  047%=      5-min Rain = 0
KPD1 180428Z 20009KT 04/M06 A30 RMK A01 T00441059  RH  047%=      5-min Rain = 0
KPD1 180429Z 20011KT 04/M06 A2999 RMK A01 T00441059  RH  047%=      5-min Rain = 0
KPD1 180430Z 20011G16KT 04/M06 A30 RMK A01 T00431059  RH  047%=      5-min Rain = 0
KPD1 180431Z 19010G16KT 04/M06 A2999 RMK A01 T00441059  RH  047%=      5-min Rain = 0
KPD1 180432Z 20012KT 04/M06 A2999 RMK A01 T00441059  RH  047%=      5-min Rain = 0
KPD1 180433Z 20011KT 04/M06 A2999 RMK A01 T00441059  RH  047%=      5-min Rain = 0
KPD1 180434Z 20011KT 04/M06 A2999 RMK A01 T00441059  RH  047%=      5-min Rain = 0
KPD1 180435Z 20011KT 04/M06 A2999 RMK A01 T00431060  RH  047%=      5-min Rain = 0
KPD1 180436Z 20012KT 04/M06 A2999 RMK A01 T00421059  RH  048%=      5-min Rain = 0
KPD1 180437Z 19012G17KT 04/M06 A2999 RMK A01 T00421059  RH  048%=      5-min Rain = 0
KPD1 180438Z 20010KT 04/M06 A2999 RMK A01 T00421059  RH  048%=      5-min Rain = 0
KPD1 180439Z 20009KT 04/M06 A2999 RMK A01 T00411059  RH  048%=      5-min Rain = 0
KPD1 180440Z 19009KT 04/M06 A2999 RMK A01 T00411059  RH  048%=      5-min Rain = 0
KPD1 180441Z 20008KT 04/M06 A2999 RMK A01 T00401059  RH  048%=      5-min Rain = 0
KPD1 180442Z 19008KT 04/M06 A2999 RMK A01 T00401059  RH  049%=      5-min Rain = 0
KPD1 180443Z 19009KT 04/M06 A2999 RMK A01 T00391059  RH  049%=      5-min Rain = 0
KPD1 180444Z 19009KT 04/M06 A2999 RMK A01 T00381058  RH  049%=      5-min Rain = 0
KPD1 180445Z 20010KT 04/M06 A2999 RMK A01 T00381058  RH  050%=      5-min Rain = 0
KPD1 180446Z 20010KT 04/M06 A2999 RMK A01 T00371058  RH  050%=      5-min Rain = 0
KPD1 180447Z 19009KT 04/M06 A2999 RMK A01 T00371057  RH  050%=      5-min Rain = 0
KPD1 180448Z 19011G16KT 04/M06 A2999 RMK A01 T00371057  RH  050%=      5-min Rain = 0
KPD1 180449Z 19012KT 04/M06 A2999 RMK A01 T00371056  RH  050%=      5-min Rain = 0
KPD1 180450Z 19009KT 04/M06 A2999 RMK A01 T00381056  RH  050%=      5-min Rain = 0
KPD1 180451Z 19010KT 04/M06 A2999 RMK A01 T00381056  RH  050%=      5-min Rain = 0
KPD1 180452Z 20011KT 04/M06 A2999 RMK A01 T00381056  RH  050%=      5-min Rain = 0
KPD1 180453Z 20011KT 04/M06 A2999 RMK A01 T00381056  RH  051%=      5-min Rain = 0
KPD1 180454Z 19009KT 04/M06 A2999 RMK A01 T00371056  RH  051%=      5-min Rain = 0
KPD1 180455Z 20013KT 04/M06 A2999 RMK A01 T00371056  RH  051%=      5-min Rain = 0
KPD1 180456Z 19011KT 04/M06 A2998 RMK A01 T00361056  RH  051%=      5-min Rain = 0
KPD1 180457Z 20011G17KT 04/M06 A2998 RMK A01 T00361056  RH  051%=      5-min Rain = 0
KPD1 180458Z 19009KT 04/M06 A2998 RMK A01 T00361055  RH  051%=      5-min Rain = 0
KPD1 180459Z 19010KT 04/M06 A2998 RMK A01 T00361056  RH  051%=      5-min Rain = 0
KPD1 180500Z 20009KT 04/M06 A2998 RMK A01 T00351056  RH  051%=      5-min Rain = 0
KPD1 180501Z 19010KT 04/M06 A2998 RMK A01 T00351056  RH  051%=      5-min Rain = 0
KPD1 180502Z 19009KT 04/M06 A2998 RMK A01 T00351055  RH  052%=      5-min Rain = 0
KPD1 180503Z 19008KT 04/M06 A2998 RMK A01 T00351056  RH  052%=      5-min Rain = 0
KPD1 180504Z 19011KT 03/M06 A2998 RMK A01 T00341055  RH  052%=      5-min Rain = 0
KPD1 180505Z 20010KT 04/M06 A2998 RMK A01 T00351055  RH  052%=      5-min Rain = 0
KPD1 180506Z 20008KT 04/M05 A2998 RMK A01 T00351054  RH  052%=      5-min Rain = 0
KPD1 180507Z 20010KT 04/M05 A2998 RMK A01 T00351054  RH  052%=      5-min Rain = 0
KPD1 180508Z 19009G14KT 04/M05 A2998 RMK A01 T00351054  RH  052%=      5-min Rain = 0
KPD1 180509Z 20012KT 04/M05 A2998 RMK A01 T00351054  RH  052%=      5-min Rain = 0
KPD1 180510Z 20010KT 04/M05 A2998 RMK A01 T00351054  RH  052%=      5-min Rain = 0
KPD1 180511Z 20009KT 04/M06 A2998 RMK A01 T00351055  RH  052%=      5-min Rain = 0
KPD1 180512Z 20010KT 04/M05 A2998 RMK A01 T00351054  RH  052%=      5-min Rain = 0
KPD1 180513Z 20013KT 04/M05 A2998 RMK A01 T00351054  RH  052%=      5-min Rain = 0
KPD1 180514Z 21009KT 04/M05 A2998 RMK A01 T00361053  RH  052%=      5-min Rain = 0
KPD1 180515Z 20011KT 04/M05 A2998 RMK A01 T00361053  RH  052%=      5-min Rain = 0
KPD1 180516Z 20011KT 04/M05 A2998 RMK A01 T00371053  RH  052%=      5-min Rain = 0
KPD1 180517Z 20011KT 04/M05 A2998 RMK A01 T00371053  RH  052%=      5-min Rain = 0
KPD1 180518Z 21008KT 04/M05 A2998 RMK A01 T00361054  RH  052%=      5-min Rain = 0
KPD1 180519Z 20009KT 04/M05 A2998 RMK A01 T00351054  RH  052%=      5-min Rain = 0
KPD1 180520Z 20010KT 04/M06 A2998 RMK A01 T00351055  RH  052%=      5-min Rain = 0
KPD1 180521Z 20010KT 04/M05 A2997 RMK A01 T00351054  RH  052%=      5-min Rain = 0
KPD1 180522Z 20008KT 04/M05 A2997 RMK A01 T00351054  RH  052%=      5-min Rain = 0
KPD1 180523Z 21011KT 04/M05 A2997 RMK A01 T00351054  RH  052%=      5-min Rain = 0
KPD1 180524Z 20011KT 04/M05 A2997 RMK A01 T00351054  RH  052%=      5-min Rain = 0
KPD1 180525Z 20011KT 04/M05 A2997 RMK A01 T00361053  RH  052%=      5-min Rain = 0
KPD1 180526Z 21009KT 04/M05 A2997 RMK A01 T00361053  RH  052%=      5-min Rain = 0
KPD1 180527Z 20009KT 04/M05 A2997 RMK A01 T00361054  RH  052%=      5-min Rain = 0
KPD1 180528Z 20008KT 04/M05 A2997 RMK A01 T00361054  RH  052%=      5-min Rain = 0
KPD1 180529Z 20010KT 04/M05 A2997 RMK A01 T00361054  RH  052%=      5-min Rain = 0
KPD1 180530Z 20009KT 04/M05 A2997 RMK A01 T00361054  RH  052%=      5-min Rain = 0
KPD1 180531Z 21011KT 04/M05 A2997 RMK A01 T00361054  RH  052%=      5-min Rain = 0
KPD1 180532Z 20012KT 04/M05 A2997 RMK A01 T00351054  RH  052%=      5-min Rain = 0
KPD1 180533Z 20010KT 04/M05 A2997 RMK A01 T00371053  RH  052%=      5-min Rain = 0
KPD1 180534Z 21009G15KT 04/M05 A2997 RMK A01 T00371054  RH  052%=      5-min Rain = 0
KPD1 180535Z 21009KT 04/M05 A2997 RMK A01 T00361054  RH  052%=      5-min Rain = 0
KPD1 180536Z 20010KT 04/M05 A2997 RMK A01 T00361054  RH  052%=      5-min Rain = 0
KPD1 180537Z 20009KT 04/M05 A2997 RMK A01 T00351054  RH  052%=      5-min Rain = 0
KPD1 180538Z 20009G14KT 04/M05 A2997 RMK A01 T00351054  RH  052%=      5-min Rain = 0
KPD1 180539Z 20011KT 04/M05 A2997 RMK A01 T00361054  RH  052%=      5-min Rain = 0
KPD1 180540Z 20010KT 04/M05 A2997 RMK A01 T00361054  RH  052%=      5-min Rain = 0
KPD1 180541Z 20011G16KT 04/M05 A2997 RMK A01 T00361054  RH  052%=      5-min Rain = 0
KPD1 180542Z 20011KT 04/M05 A2997 RMK A01 T00361054  RH  052%=      5-min Rain = 0
KPD1 180543Z 20011KT 04/M06 A2997 RMK A01 T00361055  RH  051%=      5-min Rain = 0
KPD1 180544Z 20012KT 04/M05 A2997 RMK A01 T00361054  RH  052%=      5-min Rain = 0
KPD1 180545Z 20009KT 04/M05 A2997 RMK A01 T00361054  RH  052%=      5-min Rain = 0
KPD1 180546Z 20011KT 04/M06 A2997 RMK A01 T00361055  RH  052%=      5-min Rain = 0
KPD1 180547Z 20010KT 04/M05 A2997 RMK A01 T00361054  RH  052%=      5-min Rain = 0
KPD1 180548Z 20012G17KT 04/M06 A2997 RMK A01 T00361055  RH  052%=      5-min Rain = 0
KPD1 180549Z 20010G15KT 04/M06 A2997 RMK A01 T00361055  RH  052%=      5-min Rain = 0
KPD1 180550Z 20011KT 04/M06 A2997 RMK A01 T00361055  RH  051%=      5-min Rain = 0
KPD1 180551Z 20013KT 04/M06 A2997 RMK A01 T00361055  RH  051%=      5-min Rain = 0
KPD1 180552Z 20011G16KT 04/M06 A2997 RMK A01 T00371055  RH  051%=      5-min Rain = 0
KPD1 180553Z 19012KT 04/M06 A2997 RMK A01 T00361055  RH  051%=      5-min Rain = 0
KPD1 180554Z 20012KT 04/M06 A2997 RMK A01 T00361055  RH  051%=      5-min Rain = 0
KPD1 180555Z 19012KT 04/M06 A2997 RMK A01 T00361055  RH  051%=      5-min Rain = 0
KPD1 180556Z 20009G14KT 04/M06 A2996 RMK A01 T00361055  RH  051%=      5-min Rain = 0
KPD1 180557Z 20009G15KT 04/M06 A2996 RMK A01 T00351056  RH  051%=      5-min Rain = 0
KPD1 180558Z 20010KT 03/M06 A2996 RMK A01 T00341057  RH  051%=      5-min Rain = 0
KPD1 180559Z 21010KT 03/M06 A2996 RMK A01 T00331057  RH  052%=      5-min Rain = 0

Page generated in 0.23 seconds.